
Distance (Route):
Temperature : 0°C
Humidity : 0%
Pressure : 0hPa| Receiver | Frames | First received | Last received |
|---|---|---|---|
| KRY50SP | 235 | 2026-09-04 23:45:30 | 2026-09-05 00:53:03 |
| SQ6EMJ | 211 | 2026-09-04 23:27:11 | 2026-09-04 23:52:45 |
| SP3BTT-10 | 56 | 2026-09-04 23:40:52 | 2026-09-05 00:32:25 |
| POL1PZ | 38 | 2026-09-04 23:24:40 | 2026-09-04 23:38:24 |
| SP4MAZ | 17 | 2026-09-05 00:06:02 | 2026-09-05 00:44:36 |
| OE3JTB-15 | 1 | 2026-09-04 23:34:17 | 2026-09-04 23:34:17 |
| Receiver | Date | Latitude | Longitude | Direction | Speed | Altitude | Climb | Temperature | Humidity | Pressure | Voltage | Killtimer | Uptime | BKT | XDATA |
|---|---|---|---|---|---|---|---|---|---|---|---|---|---|---|---|
| KRY50SP | 2026-09-05 00:53:03 | 51.18590 | 19.06870 | 85° | 135km/h | 10937m | -4.4m/s | 0°C | 0% | 0hPa | 0V | 00:00:00 | 00:00:00 | 00:00:00 | |
| KRY50SP | 2026-09-05 00:52:57 | 51.18558 | 19.06555 | 82° | 131km/h | 10963m | -4.6m/s | 0°C | 0% | 0hPa | 0V | 00:00:00 | 00:00:00 | 00:00:00 | |
| KRY50SP | 2026-09-05 00:52:50 | 51.18530 | 19.06179 | 83° | 135km/h | 10995m | -4.3m/s | 0°C | 0% | 0hPa | 0V | 00:00:00 | 00:00:00 | 00:00:00 | |
| KRY50SP | 2026-09-05 00:52:45 | 51.18499 | 19.05914 | 80° | 133km/h | 11015m | -5.4m/s | 0°C | 0% | 0hPa | 0V | 00:00:00 | 00:00:00 | 00:00:00 | |
| KRY50SP | 2026-09-05 00:50:40 | 51.17738 | 18.99321 | 81° | 133km/h | 11558m | -5.4m/s | 0°C | 0% | 0hPa | 0V | 00:00:00 | 00:00:00 | 00:00:00 | |
| KRY50SP | 2026-09-05 00:50:28 | 51.17657 | 18.98693 | 80° | 135km/h | 11618m | -4.8m/s | 0°C | 0% | 0hPa | 0V | 00:00:00 | 00:00:00 | 00:00:00 | |
| KRY50SP | 2026-09-05 00:50:13 | 51.17569 | 18.97907 | 80° | 135km/h | 11693m | -6.2m/s | 0°C | 0% | 0hPa | 0V | 00:00:00 | 00:00:00 | 00:00:00 | |
| KRY50SP | 2026-09-05 00:50:07 | 51.17534 | 18.97596 | 80° | 131km/h | 11723m | -7.0m/s | 0°C | 0% | 0hPa | 0V | 00:00:00 | 00:00:00 | 00:00:00 | |
| KRY50SP | 2026-09-05 00:49:56 | 51.17460 | 18.97009 | 77° | 130km/h | 11783m | -7.6m/s | 0°C | 0% | 0hPa | 0V | 00:00:00 | 00:00:00 | 00:00:00 | |
| KRY50SP | 2026-09-05 00:49:46 | 51.17394 | 18.96488 | 79° | 131km/h | 11844m | -6.1m/s | 0°C | 0% | 0hPa | 0V | 00:00:00 | 00:00:00 | 00:00:00 | |
| KRY50SP | 2026-09-05 00:49:40 | 51.17353 | 18.96179 | 80° | 131km/h | 11892m | -6.3m/s | 0°C | 0% | 0hPa | 0V | 00:00:00 | 00:00:00 | 00:00:00 | |
| KRY50SP | 2026-09-05 00:49:35 | 51.17318 | 18.95927 | 83° | 159km/h | 11925m | 1.2m/s | 0°C | 0% | 0hPa | 0V | 00:00:00 | 00:00:00 | 00:00:00 | |
| KRY50SP | 2026-09-05 00:49:25 | 51.17250 | 18.95371 | 82° | 128km/h | 11963m | -6.0m/s | 0°C | 0% | 0hPa | 0V | 00:00:00 | 00:00:00 | 00:00:00 | |
| KRY50SP | 2026-09-05 00:49:15 | 51.17190 | 18.94844 | 80° | 131km/h | 12023m | -6.2m/s | 0°C | 0% | 0hPa | 0V | 00:00:00 | 00:00:00 | 00:00:00 | |
| KRY50SP | 2026-09-05 00:49:09 | 51.17148 | 18.94534 | 77° | 128km/h | 12057m | -6.9m/s | 0°C | 0% | 0hPa | 0V | 00:00:00 | 00:00:00 | 00:00:00 | |
| KRY50SP | 2026-09-05 00:49:03 | 51.17102 | 18.94224 | 79° | 137km/h | 12085m | -3.9m/s | 0°C | 0% | 0hPa | 0V | 00:00:00 | 00:00:00 | 00:00:00 | |
| KRY50SP | 2026-09-05 00:48:53 | 51.17025 | 18.93705 | 76° | 128km/h | 12134m | -7.3m/s | 0°C | 0% | 0hPa | 0V | 00:00:00 | 00:00:00 | 00:00:00 | |
| KRY50SP | 2026-09-05 00:48:47 | 51.16972 | 18.93411 | 73° | 126km/h | 12187m | -14.0m/s | 0°C | 0% | 0hPa | 0V | 00:00:00 | 00:00:00 | 00:00:00 | |
| KRY50SP | 2026-09-05 00:48:42 | 51.16935 | 18.93161 | 77° | 131km/h | 12225m | -6.3m/s | 0°C | 0% | 0hPa | 0V | 00:00:00 | 00:00:00 | 00:00:00 | |
| KRY50SP | 2026-09-05 00:48:35 | 51.16875 | 18.92799 | 77° | 141km/h | 12265m | -4.9m/s | 0°C | 0% | 0hPa | 0V | 00:00:00 | 00:00:00 | 00:00:00 | |
| KRY50SP | 2026-09-05 00:48:30 | 51.16836 | 18.92531 | 78° | 137km/h | 12290m | -5.0m/s | 0°C | 0% | 0hPa | 0V | 00:00:00 | 00:00:00 | 00:00:00 | |
| KRY50SP | 2026-09-05 00:48:24 | 51.16789 | 18.92225 | 78° | 135km/h | 12325m | -4.3m/s | 0°C | 0% | 0hPa | 0V | 00:00:00 | 00:00:00 | 00:00:00 | |
| KRY50SP | 2026-09-05 00:48:18 | 51.16738 | 18.91909 | 78° | 137km/h | 12360m | -6.0m/s | 0°C | 0% | 0hPa | 0V | 00:00:00 | 00:00:00 | 00:00:00 | |
| KRY50SP | 2026-09-05 00:48:12 | 51.16696 | 18.91585 | 80° | 139km/h | 12398m | -5.9m/s | 0°C | 0% | 0hPa | 0V | 00:00:00 | 00:00:00 | 00:00:00 | |
| KRY50SP | 2026-09-05 00:48:06 | 51.16657 | 18.91258 | 81° | 139km/h | 12436m | -6.1m/s | 0°C | 0% | 0hPa | 0V | 00:00:00 | 00:00:00 | 00:00:00 | |
| KRY50SP | 2026-09-05 00:48:01 | 51.16622 | 18.90980 | 81° | 148km/h | 12471m | -4.6m/s | 0°C | 0% | 0hPa | 0V | 00:00:00 | 00:00:00 | 00:00:00 | |
| KRY50SP | 2026-09-05 00:47:53 | 51.16569 | 18.90532 | 82° | 148km/h | 12518m | -3.3m/s | 0°C | 0% | 0hPa | 0V | 00:00:00 | 00:00:00 | 00:00:00 | |
| KRY50SP | 2026-09-05 00:47:46 | 51.16526 | 18.90127 | 81° | 141km/h | 12553m | -4.3m/s | 0°C | 0% | 0hPa | 0V | 00:00:00 | 00:00:00 | 00:00:00 | |
| KRY50SP | 2026-09-05 00:47:38 | 51.16474 | 18.89674 | 80° | 150km/h | 12599m | -4.8m/s | 0°C | 0% | 0hPa | 0V | 00:00:00 | 00:00:00 | 00:00:00 | |
| KRY50SP | 2026-09-05 00:47:33 | 51.16440 | 18.89386 | 81° | 150km/h | 12629m | -5.5m/s | 0°C | 0% | 0hPa | 0V | 00:00:00 | 00:00:00 | 00:00:00 | |
| KRY50SP | 2026-09-05 00:47:27 | 51.16400 | 18.89041 | 82° | 148km/h | 12662m | -5.3m/s | 0°C | 0% | 0hPa | 0V | 00:00:00 | 00:00:00 | 00:00:00 | |
| KRY50SP | 2026-09-05 00:47:17 | 51.16342 | 18.88465 | 86° | 153km/h | 12732m | -4.5m/s | 0°C | 0% | 0hPa | 0V | 00:00:00 | 00:00:00 | 00:00:00 | |
| KRY50SP | 2026-09-05 00:47:10 | 51.16315 | 18.88032 | 84° | 155km/h | 12758m | -3.1m/s | 0°C | 0% | 0hPa | 0V | 00:00:00 | 00:00:00 | 00:00:00 | |
| KRY50SP | 2026-09-05 00:47:04 | 51.16294 | 18.87675 | 87° | 148km/h | 12786m | -5.3m/s | 0°C | 0% | 0hPa | 0V | 00:00:00 | 00:00:00 | 00:00:00 | |
| KRY50SP | 2026-09-05 00:46:57 | 51.16270 | 18.87260 | 86° | 148km/h | 12822m | -5.1m/s | 0°C | 0% | 0hPa | 0V | 00:00:00 | 00:00:00 | 00:00:00 | |
| KRY50SP | 2026-09-05 00:46:50 | 51.16243 | 18.86849 | 87° | 148km/h | 12855m | -3.8m/s | 0°C | 0% | 0hPa | 0V | 00:00:00 | 00:00:00 | 00:00:00 | |
| KRY50SP | 2026-09-05 00:46:44 | 51.16228 | 18.86497 | 87° | 150km/h | 12881m | -5.3m/s | 0°C | 0% | 0hPa | 0V | 00:00:00 | 00:00:00 | 00:00:00 | |
| KRY50SP | 2026-09-05 00:46:37 | 51.16212 | 18.86080 | 89° | 150km/h | 12914m | -3.9m/s | 0°C | 0% | 0hPa | 0V | 00:00:00 | 00:00:00 | 00:00:00 | |
| KRY50SP | 2026-09-05 00:46:28 | 51.16195 | 18.85544 | 94° | 141km/h | 12949m | -4.2m/s | 0°C | 0% | 0hPa | 0V | 00:00:00 | 00:00:00 | 00:00:00 | |
| KRY50SP | 2026-09-05 00:46:22 | 51.16201 | 18.85187 | 88° | 157km/h | 12979m | -3.6m/s | 0°C | 0% | 0hPa | 0V | 00:00:00 | 00:00:00 | 00:00:00 | |
| KRY50SP | 2026-09-05 00:46:15 | 51.16190 | 18.84761 | 93° | 144km/h | 13020m | -3.0m/s | 0°C | 0% | 0hPa | 0V | 00:00:00 | 00:00:00 | 00:00:00 | |
| KRY50SP | 2026-09-05 00:46:09 | 51.16198 | 18.84409 | 94° | 146km/h | 13051m | -5.5m/s | 0°C | 0% | 0hPa | 0V | 00:00:00 | 00:00:00 | 00:00:00 | |
| KRY50SP | 2026-09-05 00:46:02 | 51.16201 | 18.83996 | 93° | 150km/h | 13098m | -7.2m/s | 0°C | 0% | 0hPa | 0V | 00:00:00 | 00:00:00 | 00:00:00 | |
| KRY50SP | 2026-09-05 00:45:57 | 51.16204 | 18.83703 | 90° | 141km/h | 13128m | -4.2m/s | 0°C | 0% | 0hPa | 0V | 00:00:00 | 00:00:00 | 00:00:00 | |
| KRY50SP | 2026-09-05 00:45:48 | 51.16215 | 18.83165 | 91° | 157km/h | 13178m | -5.2m/s | 0°C | 0% | 0hPa | 0V | 00:00:00 | 00:00:00 | 00:00:00 | |
| KRY50SP | 2026-09-05 00:45:42 | 51.16217 | 18.82813 | 93° | 139km/h | 13215m | -7.6m/s | 0°C | 0% | 0hPa | 0V | 00:00:00 | 00:00:00 | 00:00:00 | |
| KRY50SP | 2026-09-05 00:45:33 | 51.16218 | 18.82284 | 90° | 142km/h | 13265m | -6.3m/s | 0°C | 0% | 0hPa | 0V | 00:00:00 | 00:00:00 | 00:00:00 | |
| KRY50SP | 2026-09-05 00:45:23 | 51.16214 | 18.81724 | 91° | 135km/h | 13324m | -6.3m/s | 0°C | 0% | 0hPa | 0V | 00:00:00 | 00:00:00 | 00:00:00 | |
| KRY50SP | 2026-09-05 00:45:17 | 51.16204 | 18.81412 | 83° | 137km/h | 13359m | -7.1m/s | 0°C | 0% | 0hPa | 0V | 00:00:00 | 00:00:00 | 00:00:00 | |
| KRY50SP | 2026-09-05 00:45:11 | 51.16179 | 18.81069 | 87° | 135km/h | 13390m | -4.2m/s | 0°C | 0% | 0hPa | 0V | 00:00:00 | 00:00:00 | 00:00:00 | |
| KRY50SP | 2026-09-05 00:45:06 | 51.16165 | 18.80806 | 88° | 137km/h | 13417m | -6.4m/s | 0°C | 0% | 0hPa | 0V | 00:00:00 | 00:00:00 | 00:00:00 | |
| KRY50SP | 2026-09-05 00:45:00 | 51.16133 | 18.80472 | 81° | 137km/h | 13456m | -6.7m/s | 0°C | 0% | 0hPa | 0V | 00:00:00 | 00:00:00 | 00:00:00 | |
| KRY50SP | 2026-09-05 00:44:54 | 51.16102 | 18.80143 | 84° | 142km/h | 13494m | -7.3m/s | 0°C | 0% | 0hPa | 0V | 00:00:00 | 00:00:00 | 00:00:00 | |
| KRY50SP | 2026-09-05 00:44:49 | 51.16086 | 18.79872 | 84° | 130km/h | 13523m | -4.6m/s | 0°C | 0% | 0hPa | 0V | 00:00:00 | 00:00:00 | 00:00:00 | |
| KRY50SP | 2026-09-05 00:44:43 | 51.16058 | 18.79557 | 84° | 133km/h | 13564m | -6.3m/s | 0°C | 0% | 0hPa | 0V | 00:00:00 | 00:00:00 | 00:00:00 | |
| KRY50SP | 2026-09-05 00:44:37 | 51.16035 | 18.79234 | 83° | 131km/h | 13599m | -5.9m/s | 0°C | 0% | 0hPa | 0V | 00:00:00 | 00:00:00 | 00:00:00 | |
| SP4MAZ | 2026-09-05 00:44:36 | 51.16030 | 18.79182 | 83° | 131km/h | 13606m | -6.2m/s | 0°C | 0% | 0hPa | 0V | 00:00:00 | 00:00:00 | 00:00:00 | |
| KRY50SP | 2026-09-05 00:44:28 | 51.15997 | 18.78763 | 85° | 131km/h | 13654m | -5.8m/s | 0°C | 0% | 0hPa | 0V | 00:00:00 | 00:00:00 | 00:00:00 | |
| KRY50SP | 2026-09-05 00:44:23 | 51.15985 | 18.78499 | 89° | 130km/h | 13682m | -6.3m/s | 0°C | 0% | 0hPa | 0V | 00:00:00 | 00:00:00 | 00:00:00 | |
| KRY50SP | 2026-09-05 00:44:18 | 51.15977 | 18.78232 | 88° | 133km/h | 13714m | -6.7m/s | 0°C | 0% | 0hPa | 0V | 00:00:00 | 00:00:00 | 00:00:00 | |
| KRY50SP | 2026-09-05 00:44:12 | 51.15972 | 18.77926 | 93° | 124km/h | 13748m | -7.2m/s | 0°C | 0% | 0hPa | 0V | 00:00:00 | 00:00:00 | 00:00:00 | |
| KRY50SP | 2026-09-05 00:44:04 | 51.15974 | 18.77507 | 92° | 130km/h | 13803m | -6.1m/s | 0°C | 0% | 0hPa | 0V | 00:00:00 | 00:00:00 | 00:00:00 | |
| KRY50SP | 2026-09-05 00:43:55 | 51.15979 | 18.77063 | 92° | 120km/h | 13846m | -5.7m/s | 0°C | 0% | 0hPa | 0V | 00:00:00 | 00:00:00 | 00:00:00 | |
| KRY50SP | 2026-09-05 00:43:50 | 51.15989 | 18.76823 | 96° | 117km/h | 13877m | -7.5m/s | 0°C | 0% | 0hPa | 0V | 00:00:00 | 00:00:00 | 00:00:00 | |
| KRY50SP | 2026-09-05 00:43:43 | 51.16001 | 18.76489 | 93° | 111km/h | 13923m | -4.8m/s | 0°C | 0% | 0hPa | 0V | 00:00:00 | 00:00:00 | 00:00:00 | |
| KRY50SP | 2026-09-05 00:43:37 | 51.16006 | 18.76206 | 93° | 115km/h | 13958m | -5.5m/s | 0°C | 0% | 0hPa | 0V | 00:00:00 | 00:00:00 | 00:00:00 | |
| KRY50SP | 2026-09-05 00:43:31 | 51.16006 | 18.75937 | 96° | 111km/h | 13990m | -3.9m/s | 0°C | 0% | 0hPa | 0V | 00:00:00 | 00:00:00 | 00:00:00 | |
| KRY50SP | 2026-09-05 00:43:24 | 51.16018 | 18.75621 | 94° | 113km/h | 14028m | -5.7m/s | 0°C | 0% | 0hPa | 0V | 00:00:00 | 00:00:00 | 00:00:00 | |
| KRY50SP | 2026-09-05 00:43:18 | 51.16022 | 18.75350 | 92° | 120km/h | 14066m | -6.8m/s | 0°C | 0% | 0hPa | 0V | 00:00:00 | 00:00:00 | 00:00:00 | |
| KRY50SP | 2026-09-05 00:43:10 | 51.16016 | 18.74974 | 88° | 119km/h | 14113m | -5.4m/s | 0°C | 0% | 0hPa | 0V | 00:00:00 | 00:00:00 | 00:00:00 | |
| KRY50SP | 2026-09-05 00:43:04 | 51.16019 | 18.74696 | 94° | 113km/h | 14145m | -6.9m/s | 0°C | 0% | 0hPa | 0V | 00:00:00 | 00:00:00 | 00:00:00 | |
| KRY50SP | 2026-09-05 00:42:59 | 51.16026 | 18.74470 | 92° | 111km/h | 14184m | -6.3m/s | 0°C | 0% | 0hPa | 0V | 00:00:00 | 00:00:00 | 00:00:00 | |
| KRY50SP | 2026-09-05 00:42:54 | 51.16022 | 18.74250 | 88° | 111km/h | 14213m | -5.6m/s | 0°C | 0% | 0hPa | 0V | 00:00:00 | 00:00:00 | 00:00:00 | |
| KRY50SP | 2026-09-05 00:42:48 | 51.16025 | 18.73995 | 95° | 108km/h | 14244m | -5.8m/s | 0°C | 0% | 0hPa | 0V | 00:00:00 | 00:00:00 | 00:00:00 | |
| KRY50SP | 2026-09-05 00:42:42 | 51.16024 | 18.73742 | 87° | 110km/h | 14286m | -6.2m/s | 0°C | 0% | 0hPa | 0V | 00:00:00 | 00:00:00 | 00:00:00 | |
| KRY50SP | 2026-09-05 00:42:37 | 51.16026 | 18.73516 | 97° | 115km/h | 14317m | -5.7m/s | 0°C | 0% | 0hPa | 0V | 00:00:00 | 00:00:00 | 00:00:00 | |
| KRY50SP | 2026-09-05 00:42:30 | 51.16038 | 18.73196 | 94° | 115km/h | 14355m | -4.8m/s | 0°C | 0% | 0hPa | 0V | 00:00:00 | 00:00:00 | 00:00:00 | |
| KRY50SP | 2026-09-05 00:42:23 | 51.16051 | 18.72860 | 100° | 120km/h | 14396m | -6.8m/s | 0°C | 0% | 0hPa | 0V | 00:00:00 | 00:00:00 | 00:00:00 | |
| KRY50SP | 2026-09-05 00:42:15 | 51.16058 | 18.72488 | 95° | 117km/h | 14442m | -6.4m/s | 0°C | 0% | 0hPa | 0V | 00:00:00 | 00:00:00 | 00:00:00 | |
| KRY50SP | 2026-09-05 00:42:09 | 51.16079 | 18.72195 | 97° | 120km/h | 14485m | -5.3m/s | 0°C | 0% | 0hPa | 0V | 00:00:00 | 00:00:00 | 00:00:00 | |
| KRY50SP | 2026-09-05 00:42:04 | 51.16091 | 18.71968 | 95° | 111km/h | 14520m | -5.9m/s | 0°C | 0% | 0hPa | 0V | 00:00:00 | 00:00:00 | 00:00:00 | |
| KRY50SP | 2026-09-05 00:41:57 | 51.16121 | 18.71634 | 100° | 120km/h | 14563m | -8.0m/s | 0°C | 0% | 0hPa | 0V | 00:00:00 | 00:00:00 | 00:00:00 | |
| KRY50SP | 2026-09-05 00:41:52 | 51.16146 | 18.71415 | 103° | 108km/h | 14592m | -5.2m/s | 0°C | 0% | 0hPa | 0V | 00:00:00 | 00:00:00 | 00:00:00 | |
| KRY50SP | 2026-09-05 00:41:45 | 51.16185 | 18.71106 | 102° | 110km/h | 14631m | -6.2m/s | 0°C | 0% | 0hPa | 0V | 00:00:00 | 00:00:00 | 00:00:00 | |
| KRY50SP | 2026-09-05 00:41:39 | 51.16220 | 18.70865 | 103° | 100km/h | 14671m | -6.0m/s | 0°C | 0% | 0hPa | 0V | 00:00:00 | 00:00:00 | 00:00:00 | |
| KRY50SP | 2026-09-05 00:41:30 | 51.16245 | 18.70506 | 97° | 97km/h | 14729m | -7.7m/s | 0°C | 0% | 0hPa | 0V | 00:00:00 | 00:00:00 | 00:00:00 | |
| KRY50SP | 2026-09-05 00:41:18 | 51.16264 | 18.70050 | 97° | 93km/h | 14802m | -6.1m/s | 0°C | 0% | 0hPa | 0V | 00:00:00 | 00:00:00 | 00:00:00 | |
| KRY50SP | 2026-09-05 00:41:12 | 51.16273 | 18.69815 | 94° | 99km/h | 14842m | -6.0m/s | 0°C | 0% | 0hPa | 0V | 00:00:00 | 00:00:00 | 00:00:00 | |
| KRY50SP | 2026-09-05 00:41:06 | 51.16285 | 18.69593 | 97° | 89km/h | 14880m | -3.3m/s | 0°C | 0% | 0hPa | 0V | 00:00:00 | 00:00:00 | 00:00:00 | |
| KRY50SP | 2026-09-05 00:41:00 | 51.16287 | 18.69368 | 84° | 88km/h | 14915m | -5.7m/s | 0°C | 0% | 0hPa | 0V | 00:00:00 | 00:00:00 | 00:00:00 | |
| KRY50SP | 2026-09-05 00:40:54 | 51.16276 | 18.69152 | 94° | 93km/h | 14950m | -4.0m/s | 0°C | 0% | 0hPa | 0V | 00:00:00 | 00:00:00 | 00:00:00 | |
| KRY50SP | 2026-09-05 00:40:45 | 51.16270 | 18.68815 | 90° | 93km/h | 15004m | -6.3m/s | 0°C | 0% | 0hPa | 0V | 00:00:00 | 00:00:00 | 00:00:00 | |
| KRY50SP | 2026-09-05 00:40:38 | 51.16276 | 18.68542 | 94° | 104km/h | 15050m | -6.2m/s | 0°C | 0% | 0hPa | 0V | 00:00:00 | 00:00:00 | 00:00:00 | |
| KRY50SP | 2026-09-05 00:40:33 | 51.16288 | 18.68330 | 101° | 104km/h | 15085m | -4.9m/s | 0°C | 0% | 0hPa | 0V | 00:00:00 | 00:00:00 | 00:00:00 | |
| KRY50SP | 2026-09-05 00:40:14 | 51.16375 | 18.67596 | 109° | 95km/h | 15200m | -6.3m/s | 0°C | 0% | 0hPa | 0V | 00:00:00 | 00:00:00 | 00:00:00 | |
| KRY50SP | 2026-09-05 00:40:04 | 51.16417 | 18.67237 | 103° | 88km/h | 15259m | -7.1m/s | 0°C | 0% | 0hPa | 0V | 00:00:00 | 00:00:00 | 00:00:00 | |
| KRY50SP | 2026-09-05 00:39:58 | 51.16437 | 18.67035 | 101° | 86km/h | 15296m | -4.9m/s | 0°C | 0% | 0hPa | 0V | 00:00:00 | 00:00:00 | 00:00:00 | |
| KRY50SP | 2026-09-05 00:39:48 | 51.16465 | 18.66711 | 97° | 69km/h | 15361m | -8.8m/s | 0°C | 0% | 0hPa | 0V | 00:00:00 | 00:00:00 | 00:00:00 | |
| KRY50SP | 2026-09-05 00:39:42 | 51.16484 | 18.66510 | 96° | 66km/h | 15397m | -3.9m/s | 0°C | 0% | 0hPa | 0V | 00:00:00 | 00:00:00 | 00:00:00 | |
| KRY50SP | 2026-09-05 00:39:37 | 51.16487 | 18.66356 | 92° | 78km/h | 15419m | -7.8m/s | 0°C | 0% | 0hPa | 0V | 00:00:00 | 00:00:00 | 00:00:00 | |
| KRY50SP | 2026-09-05 00:39:32 | 51.16496 | 18.66190 | 98° | 80km/h | 15451m | -4.9m/s | 0°C | 0% | 0hPa | 0V | 00:00:00 | 00:00:00 | 00:00:00 | |
| KRY50SP | 2026-09-05 00:39:26 | 51.16503 | 18.66002 | 88° | 75km/h | 15473m | -6.3m/s | 0°C | 0% | 0hPa | 0V | 00:00:00 | 00:00:00 | 00:00:00 | |
| KRY50SP | 2026-09-05 00:39:19 | 51.16493 | 18.65773 | 93° | 71km/h | 15522m | -7.1m/s | 0°C | 0% | 0hPa | 0V | 00:00:00 | 00:00:00 | 00:00:00 | |
| KRY50SP | 2026-09-05 00:39:14 | 51.16491 | 18.65627 | 92° | 69km/h | 15556m | -7.8m/s | 0°C | 0% | 0hPa | 0V | 00:00:00 | 00:00:00 | 00:00:00 | |
| KRY50SP | 2026-09-05 00:39:08 | 51.16497 | 18.65423 | 93° | 89km/h | 15590m | -7.1m/s | 0°C | 0% | 0hPa | 0V | 00:00:00 | 00:00:00 | 00:00:00 | |
| KRY50SP | 2026-09-05 00:39:02 | 51.16497 | 18.65230 | 88° | 80km/h | 15623m | -6.8m/s | 0°C | 0% | 0hPa | 0V | 00:00:00 | 00:00:00 | 00:00:00 | |
| KRY50SP | 2026-09-05 00:38:57 | 51.16498 | 18.65061 | 90° | 84km/h | 15651m | -5.3m/s | 0°C | 0% | 0hPa | 0V | 00:00:00 | 00:00:00 | 00:00:00 | |
| KRY50SP | 2026-09-05 00:38:52 | 51.16498 | 18.64894 | 91° | 80km/h | 15677m | -7.3m/s | 0°C | 0% | 0hPa | 0V | 00:00:00 | 00:00:00 | 00:00:00 | |
| KRY50SP | 2026-09-05 00:38:45 | 51.16506 | 18.64666 | 96° | 84km/h | 15719m | -4.7m/s | 0°C | 0% | 0hPa | 0V | 00:00:00 | 00:00:00 | 00:00:00 | |
| KRY50SP | 2026-09-05 00:38:40 | 51.16513 | 18.64501 | 94° | 82km/h | 15743m | -4.5m/s | 0°C | 0% | 0hPa | 0V | 00:00:00 | 00:00:00 | 00:00:00 | |
| KRY50SP | 2026-09-05 00:38:34 | 51.16521 | 18.64305 | 97° | 86km/h | 15769m | -4.0m/s | 0°C | 0% | 0hPa | 0V | 00:00:00 | 00:00:00 | 00:00:00 | |
| KRY50SP | 2026-09-05 00:38:29 | 51.16530 | 18.64151 | 96° | 75km/h | 15790m | -5.3m/s | 0°C | 0% | 0hPa | 0V | 00:00:00 | 00:00:00 | 00:00:00 | |
| KRY50SP | 2026-09-05 00:38:24 | 51.16536 | 18.64015 | 95° | 75km/h | 15831m | -6.3m/s | 0°C | 0% | 0hPa | 0V | 00:00:00 | 00:00:00 | 00:00:00 | |
| KRY50SP | 2026-09-05 00:38:18 | 51.16547 | 18.63832 | 93° | 68km/h | 15858m | -5.2m/s | 0°C | 0% | 0hPa | 0V | 00:00:00 | 00:00:00 | 00:00:00 | |
| KRY50SP | 2026-09-05 00:38:12 | 51.16556 | 18.63658 | 98° | 73km/h | 15886m | -5.5m/s | 0°C | 0% | 0hPa | 0V | 00:00:00 | 00:00:00 | 00:00:00 | |
| KRY50SP | 2026-09-05 00:38:07 | 51.16566 | 18.63515 | 93° | 62km/h | 15910m | -4.1m/s | 0°C | 0% | 0hPa | 0V | 00:00:00 | 00:00:00 | 00:00:00 | |
| KRY50SP | 2026-09-05 00:38:02 | 51.16568 | 18.63386 | 93° | 64km/h | 15934m | -5.7m/s | 0°C | 0% | 0hPa | 0V | 00:00:00 | 00:00:00 | 00:00:00 | |
| KRY50SP | 2026-09-05 00:37:57 | 51.16573 | 18.63254 | 94° | 60km/h | 15960m | -4.6m/s | 0°C | 0% | 0hPa | 0V | 00:00:00 | 00:00:00 | 00:00:00 | |
| KRY50SP | 2026-09-05 00:37:51 | 51.16569 | 18.63125 | 91° | 62km/h | 15996m | -6.3m/s | 0°C | 0% | 0hPa | 0V | 00:00:00 | 00:00:00 | 00:00:00 | |
| KRY50SP | 2026-09-05 00:37:46 | 51.16570 | 18.62992 | 90° | 64km/h | 16015m | -4.0m/s | 0°C | 0% | 0hPa | 0V | 00:00:00 | 00:00:00 | 00:00:00 | |
| KRY50SP | 2026-09-05 00:37:40 | 51.16572 | 18.62842 | 87° | 68km/h | 16046m | -5.6m/s | 0°C | 0% | 0hPa | 0V | 00:00:00 | 00:00:00 | 00:00:00 | |
| KRY50SP | 2026-09-05 00:37:35 | 51.16562 | 18.62706 | 90° | 69km/h | 16076m | -5.3m/s | 0°C | 0% | 0hPa | 0V | 00:00:00 | 00:00:00 | 00:00:00 | |
| KRY50SP | 2026-09-05 00:37:29 | 51.16561 | 18.62547 | 84° | 66km/h | 16101m | -4.9m/s | 0°C | 0% | 0hPa | 0V | 00:00:00 | 00:00:00 | 00:00:00 | |
| KRY50SP | 2026-09-05 00:37:23 | 51.16551 | 18.62366 | 90° | 73km/h | 16130m | -6.7m/s | 0°C | 0% | 0hPa | 0V | 00:00:00 | 00:00:00 | 00:00:00 | |
| KRY50SP | 2026-09-05 00:37:17 | 51.16553 | 18.62195 | 88° | 66km/h | 16164m | -6.7m/s | 0°C | 0% | 0hPa | 0V | 00:00:00 | 00:00:00 | 00:00:00 | |
| KRY50SP | 2026-09-05 00:37:11 | 51.16554 | 18.62024 | 85° | 77km/h | 16206m | -6.2m/s | 0°C | 0% | 0hPa | 0V | 00:00:00 | 00:00:00 | 00:00:00 | |
| KRY50SP | 2026-09-05 00:37:05 | 51.16543 | 18.61870 | 87° | 51km/h | 16241m | -8.5m/s | 0°C | 0% | 0hPa | 0V | 00:00:00 | 00:00:00 | 00:00:00 | |
| KRY50SP | 2026-09-05 00:37:00 | 51.16528 | 18.61762 | 65° | 69km/h | 16286m | -6.3m/s | 0°C | 0% | 0hPa | 0V | 00:00:00 | 00:00:00 | 00:00:00 | |
| KRY50SP | 2026-09-05 00:36:54 | 51.16494 | 18.61611 | 76° | 57km/h | 16330m | -7.0m/s | 0°C | 0% | 0hPa | 0V | 00:00:00 | 00:00:00 | 00:00:00 | |
| KRY50SP | 2026-09-05 00:36:48 | 51.16462 | 18.61481 | 66° | 68km/h | 16379m | -6.4m/s | 0°C | 0% | 0hPa | 0V | 00:00:00 | 00:00:00 | 00:00:00 | |
| KRY50SP | 2026-09-05 00:36:42 | 51.16418 | 18.61327 | 60° | 68km/h | 16423m | -8.9m/s | 0°C | 0% | 0hPa | 0V | 00:00:00 | 00:00:00 | 00:00:00 | |
| KRY50SP | 2026-09-05 00:36:36 | 51.16368 | 18.61186 | 62° | 66km/h | 16469m | -7.3m/s | 0°C | 0% | 0hPa | 0V | 00:00:00 | 00:00:00 | 00:00:00 | |
| KRY50SP | 2026-09-05 00:36:31 | 51.16331 | 18.61071 | 61° | 60km/h | 16509m | -10.0m/s | 0°C | 0% | 0hPa | 0V | 00:00:00 | 00:00:00 | 00:00:00 | |
| KRY50SP | 2026-09-05 00:36:24 | 51.16276 | 18.60912 | 59° | 68km/h | 16580m | -9.3m/s | 0°C | 0% | 0hPa | 0V | 00:00:00 | 00:00:00 | 00:00:00 | |
| KRY50SP | 2026-09-05 00:36:17 | 51.16220 | 18.60748 | 64° | 64km/h | 16653m | -9.6m/s | 0°C | 0% | 0hPa | 0V | 00:00:00 | 00:00:00 | 00:00:00 | |
| KRY50SP | 2026-09-05 00:36:12 | 51.16183 | 18.60637 | 61° | 68km/h | 16701m | -9.5m/s | 0°C | 0% | 0hPa | 0V | 00:00:00 | 00:00:00 | 00:00:00 | |
| KRY50SP | 2026-09-05 00:36:05 | 51.16116 | 18.60457 | 65° | 75km/h | 16773m | -9.8m/s | 0°C | 0% | 0hPa | 0V | 00:00:00 | 00:00:00 | 00:00:00 | |
| KRY50SP | 2026-09-05 00:35:59 | 51.16071 | 18.60303 | 67° | 66km/h | 16843m | -13.0m/s | 0°C | 0% | 0hPa | 0V | 00:00:00 | 00:00:00 | 00:00:00 | |
| KRY50SP | 2026-09-05 00:35:52 | 51.16022 | 18.60121 | 66° | 71km/h | 16925m | -12.0m/s | 0°C | 0% | 0hPa | 0V | 00:00:00 | 00:00:00 | 00:00:00 | |
| KRY50SP | 2026-09-05 00:35:47 | 51.15989 | 18.59980 | 77° | 71km/h | 16986m | -12.8m/s | 0°C | 0% | 0hPa | 0V | 00:00:00 | 00:00:00 | 00:00:00 | |
| KRY50SP | 2026-09-05 00:35:41 | 51.15968 | 18.59827 | 79° | 60km/h | 17061m | -10.7m/s | 0°C | 0% | 0hPa | 0V | 00:00:00 | 00:00:00 | 00:00:00 | |
| KRY50SP | 2026-09-05 00:35:30 | 51.15936 | 18.59525 | 94° | 75km/h | 17187m | -10.2m/s | 0°C | 0% | 0hPa | 0V | 00:00:00 | 00:00:00 | 00:00:00 | |
| KRY50SP | 2026-09-05 00:35:25 | 51.15948 | 18.59385 | 97° | 71km/h | 17243m | -10.6m/s | 0°C | 0% | 0hPa | 0V | 00:00:00 | 00:00:00 | 00:00:00 | |
| KRY50SP | 2026-09-05 00:35:18 | 51.15947 | 18.59189 | 86° | 75km/h | 17321m | -11.1m/s | 0°C | 0% | 0hPa | 0V | 00:00:00 | 00:00:00 | 00:00:00 | |
| KRY50SP | 2026-09-05 00:35:13 | 51.15942 | 18.59043 | 92° | 73km/h | 17367m | -10.3m/s | 0°C | 0% | 0hPa | 0V | 00:00:00 | 00:00:00 | 00:00:00 | |
| KRY50SP | 2026-09-05 00:35:07 | 51.15951 | 18.58883 | 104° | 53km/h | 17434m | -12.1m/s | 0°C | 0% | 0hPa | 0V | 00:00:00 | 00:00:00 | 00:00:00 | |
| SP4MAZ | 2026-09-05 00:35:03 | 51.15972 | 18.58801 | 112° | 60km/h | 17486m | -9.3m/s | 0°C | 0% | 0hPa | 0V | 00:00:00 | 00:00:00 | 00:00:00 | |
| KRY50SP | 2026-09-05 00:35:00 | 51.15990 | 18.58727 | 112° | 71km/h | 17517m | -10.3m/s | 0°C | 0% | 0hPa | 0V | 00:00:00 | 00:00:00 | 00:00:00 | |
| KRY50SP | 2026-09-05 00:34:54 | 51.16026 | 18.58569 | 115° | 58km/h | 17584m | -9.5m/s | 0°C | 0% | 0hPa | 0V | 00:00:00 | 00:00:00 | 00:00:00 | |
| KRY50SP | 2026-09-05 00:34:45 | 51.16069 | 18.58403 | 105° | 55km/h | 17690m | -10.9m/s | 0°C | 0% | 0hPa | 0V | 00:00:00 | 00:00:00 | 00:00:00 | |
| KRY50SP | 2026-09-05 00:34:34 | 51.16060 | 18.58182 | 65° | 47km/h | 17820m | -10.9m/s | 0°C | 0% | 0hPa | 0V | 00:00:00 | 00:00:00 | 00:00:00 | |
| KRY50SP | 2026-09-05 00:34:28 | 51.16033 | 18.58075 | 73° | 44km/h | 17893m | -11.1m/s | 0°C | 0% | 0hPa | 0V | 00:00:00 | 00:00:00 | 00:00:00 | |
| KRY50SP | 2026-09-05 00:34:20 | 51.16008 | 18.57942 | 67° | 42km/h | 17984m | -10.4m/s | 0°C | 0% | 0hPa | 0V | 00:00:00 | 00:00:00 | 00:00:00 | |
| KRY50SP | 2026-09-05 00:34:14 | 51.15973 | 18.57846 | 63° | 60km/h | 18055m | -10.0m/s | 0°C | 0% | 0hPa | 0V | 00:00:00 | 00:00:00 | 00:00:00 | |
| KRY50SP | 2026-09-05 00:34:08 | 51.15951 | 18.57701 | 86° | 64km/h | 18122m | -11.1m/s | 0°C | 0% | 0hPa | 0V | 00:00:00 | 00:00:00 | 00:00:00 | |
| KRY50SP | 2026-09-05 00:34:00 | 51.15943 | 18.57507 | 85° | 55km/h | 18222m | -11.6m/s | 0°C | 0% | 0hPa | 0V | 00:00:00 | 00:00:00 | 00:00:00 | |
| KRY50SP | 2026-09-05 00:33:54 | 51.15945 | 18.57376 | 104° | 58km/h | 18291m | -10.4m/s | 0°C | 0% | 0hPa | 0V | 00:00:00 | 00:00:00 | 00:00:00 | |
| KRY50SP | 2026-09-05 00:33:49 | 51.15959 | 18.57255 | 98° | 64km/h | 18353m | -8.9m/s | 0°C | 0% | 0hPa | 0V | 00:00:00 | 00:00:00 | 00:00:00 | |
| KRY50SP | 2026-09-05 00:33:43 | 51.15964 | 18.57114 | 97° | 58km/h | 18424m | -10.3m/s | 0°C | 0% | 0hPa | 0V | 00:00:00 | 00:00:00 | 00:00:00 | |
| KRY50SP | 2026-09-05 00:33:39 | 51.15970 | 18.56980 | 92° | 60km/h | 18472m | -12.8m/s | 0°C | 0% | 0hPa | 0V | 00:00:00 | 00:00:00 | 00:00:00 | |
| KRY50SP | 2026-09-05 00:33:32 | 51.15982 | 18.56856 | 109° | 46km/h | 18540m | -10.3m/s | 0°C | 0% | 0hPa | 0V | 00:00:00 | 00:00:00 | 00:00:00 | |
| KRY50SP | 2026-09-05 00:33:26 | 51.15997 | 18.56756 | 107° | 37km/h | 18605m | -10.4m/s | 0°C | 0% | 0hPa | 0V | 00:00:00 | 00:00:00 | 00:00:00 | |
| KRY50SP | 2026-09-05 00:33:19 | 51.16018 | 18.56667 | 110° | 40km/h | 18673m | -8.9m/s | 0°C | 0% | 0hPa | 0V | 00:00:00 | 00:00:00 | 00:00:00 | |
| KRY50SP | 2026-09-05 00:33:14 | 51.16023 | 18.56594 | 95° | 26km/h | 18732m | -9.6m/s | 0°C | 0% | 0hPa | 0V | 00:00:00 | 00:00:00 | 00:00:00 | |
| KRY50SP | 2026-09-05 00:33:08 | 51.16022 | 18.56533 | 80° | 31km/h | 18789m | -6.0m/s | 0°C | 0% | 0hPa | 0V | 00:00:00 | 00:00:00 | 00:00:00 | |
| KRY50SP | 2026-09-05 00:33:02 | 51.16006 | 18.56465 | 70° | 27km/h | 18841m | -10.8m/s | 0°C | 0% | 0hPa | 0V | 00:00:00 | 00:00:00 | 00:00:00 | |
| KRY50SP | 2026-09-05 00:32:56 | 51.15988 | 18.56430 | 73° | 37km/h | 18913m | -1.3m/s | 0°C | 0% | 0hPa | 0V | 00:00:00 | 00:00:00 | 00:00:00 | |
| KRY50SP | 2026-09-05 00:32:50 | 51.15963 | 18.56329 | 55° | 35km/h | 18923m | -7.3m/s | 0°C | 0% | 0hPa | 0V | 00:00:00 | 00:00:00 | 00:00:00 | |
| KRY50SP | 2026-09-05 00:32:45 | 51.15936 | 18.56272 | 75° | 44km/h | 18962m | -8.0m/s | 0°C | 0% | 0hPa | 0V | 00:00:00 | 00:00:00 | 00:00:00 | |
| KRY50SP | 2026-09-05 00:32:39 | 51.15908 | 18.56203 | 58° | 37km/h | 19018m | -8.4m/s | 0°C | 0% | 0hPa | 0V | 00:00:00 | 00:00:00 | 00:00:00 | |
| KRY50SP | 2026-09-05 00:32:33 | 51.15883 | 18.56136 | 49° | 29km/h | 19071m | -10.2m/s | 0°C | 0% | 0hPa | 0V | 00:00:00 | 00:00:00 | 00:00:00 | |
| KRY50SP | 2026-09-05 00:32:27 | 51.15856 | 18.56055 | 67° | 42km/h | 19116m | -6.4m/s | 0°C | 0% | 0hPa | 0V | 00:00:00 | 00:00:00 | 00:00:00 | |
| SP3BTT-10 | 2026-09-05 00:32:25 | 51.15849 | 18.56023 | 71° | 18km/h | 19127m | -7.6m/s | 0°C | 0% | 0hPa | 0V | 00:00:00 | 00:00:00 | 00:00:00 | |
| KRY50SP | 2026-09-05 00:32:20 | 51.15845 | 18.55940 | 85° | 44km/h | 19154m | -7.9m/s | 0°C | 0% | 0hPa | 0V | 00:00:00 | 00:00:00 | 00:00:00 | |
| KRY50SP | 2026-09-05 00:32:15 | 51.15836 | 18.55848 | 86° | 42km/h | 19182m | -7.9m/s | 0°C | 0% | 0hPa | 0V | 00:00:00 | 00:00:00 | 00:00:00 | |
| KRY50SP | 2026-09-05 00:32:10 | 51.15842 | 18.55764 | 98° | 40km/h | 19215m | -8.4m/s | 0°C | 0% | 0hPa | 0V | 00:00:00 | 00:00:00 | 00:00:00 | |
| KRY50SP | 2026-09-05 00:32:04 | 51.15847 | 18.55679 | 104° | 38km/h | 19260m | -8.9m/s | 0°C | 0% | 0hPa | 0V | 00:00:00 | 00:00:00 | 00:00:00 | |
| SP4MAZ | 2026-09-05 00:32:02 | 51.15853 | 18.55649 | 111° | 35km/h | 19276m | -10.4m/s | 0°C | 0% | 0hPa | 0V | 00:00:00 | 00:00:00 | 00:00:00 | |
| KRY50SP | 2026-09-05 00:31:58 | 51.15865 | 18.55602 | 114° | 20km/h | 19315m | -13.2m/s | 0°C | 0% | 0hPa | 0V | 00:00:00 | 00:00:00 | 00:00:00 | |
| KRY50SP | 2026-09-05 00:31:51 | 51.15881 | 18.55545 | 125° | 15km/h | 19398m | -9.2m/s | 0°C | 0% | 0hPa | 0V | 00:00:00 | 00:00:00 | 00:00:00 | |
| KRY50SP | 2026-09-05 00:31:45 | 51.15894 | 18.55517 | 131° | 9km/h | 19443m | -11.4m/s | 0°C | 0% | 0hPa | 0V | 00:00:00 | 00:00:00 | 00:00:00 | |
| SP3BTT-10 | 2026-09-05 00:31:41 | 51.15897 | 18.55491 | 123° | 24km/h | 19466m | -7.9m/s | 0°C | 0% | 0hPa | 0V | 00:00:00 | 00:00:00 | 00:00:00 | |
| KRY50SP | 2026-09-05 00:31:39 | 51.15900 | 18.55482 | 117° | 13km/h | 19486m | -8.8m/s | 0°C | 0% | 0hPa | 0V | 00:00:00 | 00:00:00 | 00:00:00 | |
| KRY50SP | 2026-09-05 00:31:34 | 51.15895 | 18.55465 | 47° | 13km/h | 19540m | -12.3m/s | 0°C | 0% | 0hPa | 0V | 00:00:00 | 00:00:00 | 00:00:00 | |
| KRY50SP | 2026-09-05 00:31:28 | 51.15885 | 18.55399 | 64° | 31km/h | 19571m | -8.9m/s | 0°C | 0% | 0hPa | 0V | 00:00:00 | 00:00:00 | 00:00:00 | |
| KRY50SP | 2026-09-05 00:31:22 | 51.15862 | 18.55351 | 35° | 24km/h | 19614m | -9.3m/s | 0°C | 0% | 0hPa | 0V | 00:00:00 | 00:00:00 | 00:00:00 | |
| KRY50SP | 2026-09-05 00:31:17 | 51.15842 | 18.55321 | 59° | 31km/h | 19668m | -8.1m/s | 0°C | 0% | 0hPa | 0V | 00:00:00 | 00:00:00 | 00:00:00 | |
| KRY50SP | 2026-09-05 00:31:10 | 51.15805 | 18.55268 | 55° | 46km/h | 19755m | -3.5m/s | 0°C | 0% | 0hPa | 0V | 00:00:00 | 00:00:00 | 00:00:00 | |
| KRY50SP | 2026-09-05 00:31:05 | 51.15776 | 18.55191 | 57° | 57km/h | 19777m | -2.7m/s | 0°C | 0% | 0hPa | 0V | 00:00:00 | 00:00:00 | 00:00:00 | |
| KRY50SP | 2026-09-05 00:30:59 | 51.15733 | 18.55093 | 62° | 49km/h | 19801m | -7.0m/s | 0°C | 0% | 0hPa | 0V | 00:00:00 | 00:00:00 | 00:00:00 | |
| KRY50SP | 2026-09-05 00:30:54 | 51.15705 | 18.55003 | 53° | 42km/h | 19831m | -8.3m/s | 0°C | 0% | 0hPa | 0V | 00:00:00 | 00:00:00 | 00:00:00 | |
| KRY50SP | 2026-09-05 00:30:48 | 51.15684 | 18.54932 | 79° | 29km/h | 19885m | -8.1m/s | 0°C | 0% | 0hPa | 0V | 00:00:00 | 00:00:00 | 00:00:00 | |
| KRY50SP | 2026-09-05 00:30:42 | 51.15669 | 18.54866 | 57° | 26km/h | 19927m | -9.0m/s | 0°C | 0% | 0hPa | 0V | 00:00:00 | 00:00:00 | 00:00:00 | |
| KRY50SP | 2026-09-05 00:30:37 | 51.15659 | 18.54823 | 77° | 20km/h | 19971m | -9.1m/s | 0°C | 0% | 0hPa | 0V | 00:00:00 | 00:00:00 | 00:00:00 | |
| KRY50SP | 2026-09-05 00:30:32 | 51.15649 | 18.54774 | 76° | 22km/h | 20015m | -9.0m/s | 0°C | 0% | 0hPa | 0V | 00:00:00 | 00:00:00 | 00:00:00 | |
| KRY50SP | 2026-09-05 00:30:26 | 51.15641 | 18.54733 | 76° | 24km/h | 20070m | -8.1m/s | 0°C | 0% | 0hPa | 0V | 00:00:00 | 00:00:00 | 00:00:00 | |
| SP3BTT-10 | 2026-09-05 00:30:24 | 51.15637 | 18.54712 | 78° | 29km/h | 20084m | -4.3m/s | 0°C | 0% | 0hPa | 0V | 00:00:00 | 00:00:00 | 00:00:00 | |
| KRY50SP | 2026-09-05 00:30:20 | 51.15634 | 18.54658 | 61° | 27km/h | 20105m | -4.3m/s | 0°C | 0% | 0hPa | 0V | 00:00:00 | 00:00:00 | 00:00:00 | |
| KRY50SP | 2026-09-05 00:30:15 | 51.15624 | 18.54603 | 85° | 29km/h | 20130m | -7.1m/s | 0°C | 0% | 0hPa | 0V | 00:00:00 | 00:00:00 | 00:00:00 | |
| SP4MAZ | 2026-09-05 00:30:11 | 51.15622 | 18.54549 | 91° | 33km/h | 20156m | -8.7m/s | 0°C | 0% | 0hPa | 0V | 00:00:00 | 00:00:00 | 00:00:00 | |
| KRY50SP | 2026-09-05 00:30:09 | 51.15623 | 18.54528 | 104° | 27km/h | 20176m | -9.1m/s | 0°C | 0% | 0hPa | 0V | 00:00:00 | 00:00:00 | 00:00:00 | |
| KRY50SP | 2026-09-05 00:30:04 | 51.15625 | 18.54477 | 58° | 24km/h | 20212m | -5.1m/s | 0°C | 0% | 0hPa | 0V | 00:00:00 | 00:00:00 | 00:00:00 | |
| KRY50SP | 2026-09-05 00:29:59 | 51.15621 | 18.54423 | 91° | 27km/h | 20244m | -9.7m/s | 0°C | 0% | 0hPa | 0V | 00:00:00 | 00:00:00 | 00:00:00 | |
| KRY50SP | 2026-09-05 00:29:53 | 51.15625 | 18.54384 | 122° | 18km/h | 20292m | -7.0m/s | 0°C | 0% | 0hPa | 0V | 00:00:00 | 00:00:00 | 00:00:00 | |
| KRY50SP | 2026-09-05 00:29:47 | 51.15625 | 18.54335 | 91° | 20km/h | 20336m | -5.6m/s | 0°C | 0% | 0hPa | 0V | 00:00:00 | 00:00:00 | 00:00:00 | |
| KRY50SP | 2026-09-05 00:29:41 | 51.15620 | 18.54276 | 73° | 26km/h | 20377m | -7.3m/s | 0°C | 0% | 0hPa | 0V | 00:00:00 | 00:00:00 | 00:00:00 | |
| KRY50SP | 2026-09-05 00:29:35 | 51.15612 | 18.54223 | 50° | 24km/h | 20429m | -8.0m/s | 0°C | 0% | 0hPa | 0V | 00:00:00 | 00:00:00 | 00:00:00 | |
| KRY50SP | 2026-09-05 00:29:29 | 51.15591 | 18.54162 | 69° | 29km/h | 20485m | -9.0m/s | 0°C | 0% | 0hPa | 0V | 00:00:00 | 00:00:00 | 00:00:00 | |
| SP3BTT-10 | 2026-09-05 00:29:26 | 51.15579 | 18.54139 | 48° | 33km/h | 20521m | -10.7m/s | 0°C | 0% | 0hPa | 0V | 00:00:00 | 00:00:00 | 00:00:00 | |
| KRY50SP | 2026-09-05 00:29:24 | 51.15570 | 18.54136 | 47° | 33km/h | 20561m | -8.9m/s | 0°C | 0% | 0hPa | 0V | 00:00:00 | 00:00:00 | 00:00:00 | |
| KRY50SP | 2026-09-05 00:29:19 | 51.15553 | 18.54080 | 91° | 46km/h | 20608m | 1.5m/s | 0°C | 0% | 0hPa | 0V | 00:00:00 | 00:00:00 | 00:00:00 | |
| KRY50SP | 2026-09-05 00:29:13 | 51.15541 | 18.53958 | 81° | 46km/h | 20598m | -2.8m/s | 0°C | 0% | 0hPa | 0V | 00:00:00 | 00:00:00 | 00:00:00 | |
| KRY50SP | 2026-09-05 00:29:07 | 51.15531 | 18.53845 | 70° | 42km/h | 20632m | -5.1m/s | 0°C | 0% | 0hPa | 0V | 00:00:00 | 00:00:00 | 00:00:00 | |
| KRY50SP | 2026-09-05 00:29:01 | 51.15524 | 18.53747 | 89° | 38km/h | 20663m | -6.5m/s | 0°C | 0% | 0hPa | 0V | 00:00:00 | 00:00:00 | 00:00:00 | |
| KRY50SP | 2026-09-05 00:28:56 | 51.15516 | 18.53673 | 84° | 44km/h | 20697m | -1.2m/s | 0°C | 0% | 0hPa | 0V | 00:00:00 | 00:00:00 | 00:00:00 | |
| KRY50SP | 2026-09-05 00:28:50 | 51.15523 | 18.53580 | 109° | 37km/h | 20725m | -8.9m/s | 0°C | 0% | 0hPa | 0V | 00:00:00 | 00:00:00 | 00:00:00 | |
| KRY50SP | 2026-09-05 00:28:45 | 51.15522 | 18.53516 | 81° | 33km/h | 20761m | -5.6m/s | 0°C | 0% | 0hPa | 0V | 00:00:00 | 00:00:00 | 00:00:00 | |
| SP3BTT-10 | 2026-09-05 00:28:43 | 51.15522 | 18.53485 | 90° | 33km/h | 20768m | -5.4m/s | 0°C | 0% | 0hPa | 0V | 00:00:00 | 00:00:00 | 00:00:00 | |
| KRY50SP | 2026-09-05 00:28:40 | 51.15528 | 18.53438 | 106° | 46km/h | 20787m | -7.4m/s | 0°C | 0% | 0hPa | 0V | 00:00:00 | 00:00:00 | 00:00:00 | |
| KRY50SP | 2026-09-05 00:28:34 | 51.15533 | 18.53348 | 81° | 35km/h | 20812m | -7.0m/s | 0°C | 0% | 0hPa | 0V | 00:00:00 | 00:00:00 | 00:00:00 | |
| KRY50SP | 2026-09-05 00:28:29 | 51.15538 | 18.53275 | 109° | 40km/h | 20843m | -5.9m/s | 0°C | 0% | 0hPa | 0V | 00:00:00 | 00:00:00 | 00:00:00 | |
| KRY50SP | 2026-09-05 00:28:24 | 51.15538 | 18.53214 | 76° | 22km/h | 20875m | -6.5m/s | 0°C | 0% | 0hPa | 0V | 00:00:00 | 00:00:00 | 00:00:00 | |
| KRY50SP | 2026-09-05 00:28:18 | 51.15538 | 18.53160 | 95° | 26km/h | 20910m | -3.9m/s | 0°C | 0% | 0hPa | 0V | 00:00:00 | 00:00:00 | 00:00:00 | |
| SP3BTT-10 | 2026-09-05 00:28:13 | 51.15538 | 18.53109 | 91° | 29km/h | 20930m | -3.6m/s | 0°C | 0% | 0hPa | 0V | 00:00:00 | 00:00:00 | 00:00:00 | |
| KRY50SP | 2026-09-05 00:28:07 | 51.15540 | 18.53063 | 98° | 26km/h | 20965m | -4.7m/s | 0°C | 0% | 0hPa | 0V | 00:00:00 | 00:00:00 | 00:00:00 | |
| KRY50SP | 2026-09-05 00:28:00 | 51.15546 | 18.52975 | 94° | 31km/h | 20988m | -5.9m/s | 0°C | 0% | 0hPa | 0V | 00:00:00 | 00:00:00 | 00:00:00 | |
| KRY50SP | 2026-09-05 00:27:54 | 51.15547 | 18.52927 | 77° | 22km/h | 21024m | -3.9m/s | 0°C | 0% | 0hPa | 0V | 00:00:00 | 00:00:00 | 00:00:00 | |
| KRY50SP | 2026-09-05 00:27:48 | 51.15548 | 18.52847 | 98° | 37km/h | 21048m | -1.0m/s | 0°C | 0% | 0hPa | 0V | 00:00:00 | 00:00:00 | 00:00:00 | |
| KRY50SP | 2026-09-05 00:27:43 | 51.15559 | 18.52785 | 108° | 22km/h | 21059m | -3.6m/s | 0°C | 0% | 0hPa | 0V | 00:00:00 | 00:00:00 | 00:00:00 | |
| KRY50SP | 2026-09-05 00:27:38 | 51.15562 | 18.52714 | 105° | 37km/h | 21070m | -2.5m/s | 0°C | 0% | 0hPa | 0V | 00:00:00 | 00:00:00 | 00:00:00 | |
| KRY50SP | 2026-09-05 00:27:32 | 51.15574 | 18.52646 | 81° | 35km/h | 21089m | -3.9m/s | 0°C | 0% | 0hPa | 0V | 00:00:00 | 00:00:00 | 00:00:00 | |
| KRY50SP | 2026-09-05 00:27:26 | 51.15580 | 18.52561 | 131° | 33km/h | 21108m | -3.2m/s | 0°C | 0% | 0hPa | 0V | 00:00:00 | 00:00:00 | 00:00:00 | |
| SP3BTT-10 | 2026-09-05 00:27:25 | 51.15585 | 18.52551 | 132° | 33km/h | 21111m | -3.1m/s | 0°C | 0% | 0hPa | 0V | 00:00:00 | 00:00:00 | 00:00:00 | |
| KRY50SP | 2026-09-05 00:27:20 | 51.15605 | 18.52492 | 107° | 37km/h | 21118m | -4.8m/s | 0°C | 0% | 0hPa | 0V | 00:00:00 | 00:00:00 | 00:00:00 | |
| SP3BTT-10 | 2026-09-05 00:26:55 | 51.15692 | 18.52195 | 117° | 27km/h | 21174m | -2.0m/s | 0°C | 0% | 0hPa | 0V | 00:00:00 | 00:00:00 | 00:00:00 | |
| SP3BTT-10 | 2026-09-05 00:26:25 | 51.15783 | 18.51868 | 119° | 31km/h | 21121m | 1.1m/s | 0°C | 0% | 0hPa | 0V | 00:00:00 | 00:00:00 | 00:00:00 | |
| SP3BTT-10 | 2026-09-05 00:25:38 | 51.15824 | 18.51307 | 62° | 33km/h | 20846m | 7.2m/s | 0°C | 0% | 0hPa | 0V | 00:00:00 | 00:00:00 | 00:00:00 | |
| SP4MAZ | 2026-09-05 00:25:32 | 51.15842 | 18.51217 | 75° | 7km/h | 20816m | -1.6m/s | 0°C | 0% | 0hPa | 0V | 00:00:00 | 00:00:00 | 00:00:00 | |
| SP3BTT-10 | 2026-09-05 00:24:38 | 51.15798 | 18.50484 | 102° | 31km/h | 20624m | 5.8m/s | 0°C | 0% | 0hPa | 0V | 00:00:00 | 00:00:00 | 00:00:00 | |
| SP4MAZ | 2026-09-05 00:24:19 | 51.15747 | 18.50225 | 53° | 40km/h | 20551m | 4.8m/s | 0°C | 0% | 0hPa | 0V | 00:00:00 | 00:00:00 | 00:00:00 | |
| SP3BTT-10 | 2026-09-05 00:23:57 | 51.15669 | 18.49968 | 52° | 29km/h | 20444m | 0.0m/s | 0°C | 0% | 0hPa | 0V | 00:00:00 | 00:00:00 | 00:00:00 | |
| SP3BTT-10 | 2026-09-05 00:23:23 | 51.15661 | 18.49612 | 108° | 33km/h | 20277m | 6.9m/s | 0°C | 0% | 0hPa | 0V | 00:00:00 | 00:00:00 | 00:00:00 | |
| SP3BTT-10 | 2026-09-05 00:22:51 | 51.15638 | 18.49210 | 69° | 31km/h | 20117m | 8.2m/s | 0°C | 0% | 0hPa | 0V | 00:00:00 | 00:00:00 | 00:00:00 | |
| SP4MAZ | 2026-09-05 00:22:48 | 51.15627 | 18.49173 | 51° | 31km/h | 20096m | 3.7m/s | 0°C | 0% | 0hPa | 0V | 00:00:00 | 00:00:00 | 00:00:00 | |
| SP4MAZ | 2026-09-05 00:22:27 | 51.15597 | 18.48927 | 31° | 20km/h | 19990m | 4.2m/s | 0°C | 0% | 0hPa | 0V | 00:00:00 | 00:00:00 | 00:00:00 | |
| SP3BTT-10 | 2026-09-05 00:22:01 | 51.15516 | 18.48657 | 75° | 40km/h | 19835m | 5.9m/s | 0°C | 0% | 0hPa | 0V | 00:00:00 | 00:00:00 | 00:00:00 | |
| SP3BTT-10 | 2026-09-05 00:21:30 | 51.15351 | 18.48246 | 41° | 27km/h | 19651m | 5.3m/s | 0°C | 0% | 0hPa | 0V | 00:00:00 | 00:00:00 | 00:00:00 | |
| SP4MAZ | 2026-09-05 00:20:36 | 51.15301 | 18.47920 | 112° | 20km/h | 19405m | 4.6m/s | 0°C | 0% | 0hPa | 0V | 00:00:00 | 00:00:00 | 00:00:00 | |
| SP3BTT-10 | 2026-09-05 00:20:21 | 51.15350 | 18.47778 | 114° | 33km/h | 19324m | 4.4m/s | 0°C | 0% | 0hPa | 0V | 00:00:00 | 00:00:00 | 00:00:00 | |
| SP4MAZ | 2026-09-05 00:20:16 | 51.15358 | 18.47714 | 91° | 37km/h | 19295m | 4.4m/s | 0°C | 0% | 0hPa | 0V | 00:00:00 | 00:00:00 | 00:00:00 | |
| SP3BTT-10 | 2026-09-05 00:19:34 | 51.15363 | 18.47031 | 65° | 35km/h | 19043m | 5.9m/s | 0°C | 0% | 0hPa | 0V | 00:00:00 | 00:00:00 | 00:00:00 | |
| SP3BTT-10 | 2026-09-05 00:19:04 | 51.15204 | 18.46748 | 67° | 31km/h | 18966m | 6.0m/s | 0°C | 0% | 0hPa | 0V | 00:00:00 | 00:00:00 | 00:00:00 | |
| SP4MAZ | 2026-09-05 00:18:45 | 51.15108 | 18.46590 | 49° | 11km/h | 18861m | 4.4m/s | 0°C | 0% | 0hPa | 0V | 00:00:00 | 00:00:00 | 00:00:00 | |
| SP3BTT-10 | 2026-09-05 00:18:20 | 51.15061 | 18.46320 | 77° | 44km/h | 18732m | 4.5m/s | 0°C | 0% | 0hPa | 0V | 00:00:00 | 00:00:00 | 00:00:00 | |
| SP3BTT-10 | 2026-09-05 00:17:48 | 51.15147 | 18.45798 | 81° | 58km/h | 18562m | 2.7m/s | 0°C | 0% | 0hPa | 0V | 00:00:00 | 00:00:00 | 00:00:00 | |
| SP4MAZ | 2026-09-05 00:17:14 | 51.15233 | 18.44979 | 99° | 62km/h | 18381m | 3.4m/s | 0°C | 0% | 0hPa | 0V | 00:00:00 | 00:00:00 | 00:00:00 | |
| SP3BTT-10 | 2026-09-05 00:16:18 | 51.15259 | 18.43722 | 85° | 47km/h | 18099m | 7.8m/s | 0°C | 0% | 0hPa | 0V | 00:00:00 | 00:00:00 | 00:00:00 | |
| SP4MAZ | 2026-09-05 00:15:43 | 51.15187 | 18.43016 | 96° | 51km/h | 17898m | 3.4m/s | 0°C | 0% | 0hPa | 0V | 00:00:00 | 00:00:00 | 00:00:00 | |
| SP3BTT-10 | 2026-09-05 00:15:20 | 51.15123 | 18.42588 | 79° | 60km/h | 17778m | 3.1m/s | 0°C | 0% | 0hPa | 0V | 00:00:00 | 00:00:00 | 00:00:00 | |
| SP3BTT-10 | 2026-09-05 00:14:17 | 51.15307 | 18.41292 | 99° | 66km/h | 17410m | 5.7m/s | 0°C | 0% | 0hPa | 0V | 00:00:00 | 00:00:00 | 00:00:00 | |
| SP4MAZ | 2026-09-05 00:13:31 | 51.15392 | 18.40003 | 84° | 60km/h | 17178m | 2.9m/s | 0°C | 0% | 0hPa | 0V | 00:00:00 | 00:00:00 | 00:00:00 | |
| SP3BTT-10 | 2026-09-05 00:13:30 | 51.15392 | 18.39978 | 86° | 66km/h | 17173m | 2.5m/s | 0°C | 0% | 0hPa | 0V | 00:00:00 | 00:00:00 | 00:00:00 | |
| SP3BTT-10 | 2026-09-05 00:12:47 | 51.15199 | 18.38863 | 68° | 78km/h | 16971m | 3.5m/s | 0°C | 0% | 0hPa | 0V | 00:00:00 | 00:00:00 | 00:00:00 | |
| SP3BTT-10 | 2026-09-05 00:12:02 | 51.14841 | 18.37736 | 67° | 80km/h | 16803m | 6.4m/s | 0°C | 0% | 0hPa | 0V | 00:00:00 | 00:00:00 | 00:00:00 | |
| SP3BTT-10 | 2026-09-05 00:11:09 | 51.14445 | 18.36478 | 72° | 60km/h | 16490m | 3.0m/s | 0°C | 0% | 0hPa | 0V | 00:00:00 | 00:00:00 | 00:00:00 | |
| SP4MAZ | 2026-09-05 00:09:57 | 51.14247 | 18.34714 | 91° | 64km/h | 16105m | 4.5m/s | 0°C | 0% | 0hPa | 0V | 00:00:00 | 00:00:00 | 00:00:00 | |
| SP3BTT-10 | 2026-09-05 00:09:05 | 51.14278 | 18.33329 | 95° | 82km/h | 15822m | 4.3m/s | 0°C | 0% | 0hPa | 0V | 00:00:00 | 00:00:00 | 00:00:00 | |
| SP3BTT-10 | 2026-09-05 00:07:15 | 51.14450 | 18.29782 | 103° | 91km/h | 15266m | 6.7m/s | 0°C | 0% | 0hPa | 0V | 00:00:00 | 00:00:00 | 00:00:00 | |
| SP3BTT-10 | 2026-09-05 00:06:31 | 51.14595 | 18.28063 | 92° | 111km/h | 15013m | 5.2m/s | 0°C | 0% | 0hPa | 0V | 00:00:00 | 00:00:00 | 00:00:00 | |
| SP4MAZ | 2026-09-05 00:06:23 | 51.14591 | 18.27773 | 87° | 102km/h | 14973m | 5.9m/s | 0°C | 0% | 0hPa | 0V | 00:00:00 | 00:00:00 | 00:00:00 | |
| SP4MAZ | 2026-09-05 00:06:02 | 51.14597 | 18.26995 | 89° | 93km/h | 14832m | 6.8m/s | 0°C | 0% | 0hPa | 0V | 00:00:00 | 00:00:00 | 00:00:00 | |
| SP3BTT-10 | 2026-09-05 00:05:00 | 51.14842 | 18.24366 | 94° | 117km/h | 14514m | -0.9m/s | 0°C | 0% | 0hPa | 0V | 00:00:00 | 00:00:00 | 00:00:00 | |
| SP3BTT-10 | 2026-09-05 00:04:18 | 51.14842 | 18.22464 | 85° | 110km/h | 14319m | 3.7m/s | 0°C | 0% | 0hPa | 0V | 00:00:00 | 00:00:00 | 00:00:00 | |
| SP3BTT-10 | 2026-09-05 00:03:29 | 51.14806 | 18.20258 | 83° | 111km/h | 14024m | 7.9m/s | 0°C | 0% | 0hPa | 0V | 00:00:00 | 00:00:00 | 00:00:00 | |
| SP3BTT-10 | 2026-09-05 00:01:52 | 51.14615 | 18.15421 | 87° | 131km/h | 13420m | 6.2m/s | 0°C | 0% | 0hPa | 0V | 00:00:00 | 00:00:00 | 00:00:00 | |
| SP3BTT-10 | 2026-09-05 00:00:47 | 51.14532 | 18.12146 | 97° | 148km/h | 13083m | 4.4m/s | 0°C | 0% | 0hPa | 0V | 00:00:00 | 00:00:00 | 00:00:00 | |
| SP3BTT-10 | 2026-09-05 00:00:14 | 51.14533 | 18.10256 | 82° | 144km/h | 12910m | 4.2m/s | 0°C | 0% | 0hPa | 0V | 00:00:00 | 00:00:00 | 00:00:00 | |
| SP3BTT-10 | 2026-09-04 23:59:43 | 51.14442 | 18.08526 | 87° | 141km/h | 12746m | 0.3m/s | 0°C | 0% | 0hPa | 0V | 00:00:00 | 00:00:00 | 00:00:00 | |
| SP3BTT-10 | 2026-09-04 23:58:12 | 51.13764 | 18.03775 | 71° | 126km/h | 12317m | 5.5m/s | 0°C | 0% | 0hPa | 0V | 00:00:00 | 00:00:00 | 00:00:00 | |
| SP3BTT-10 | 2026-09-04 23:57:11 | 51.13225 | 18.00835 | 74° | 124km/h | 11986m | 4.7m/s | 0°C | 0% | 0hPa | 0V | 00:00:00 | 00:00:00 | 00:00:00 | |
| SP3BTT-10 | 2026-09-04 23:56:11 | 51.12777 | 17.97957 | 78° | 128km/h | 11703m | 5.4m/s | 0°C | 0% | 0hPa | 0V | 00:00:00 | 00:00:00 | 00:00:00 | |
| SP3BTT-10 | 2026-09-04 23:55:11 | 51.12349 | 17.94981 | 80° | 128km/h | 11424m | 4.4m/s | 0°C | 0% | 0hPa | 0V | 00:00:00 | 00:00:00 | 00:00:00 | |
| SP3BTT-10 | 2026-09-04 23:54:41 | 51.12141 | 17.93483 | 78° | 128km/h | 11300m | 4.3m/s | 0°C | 0% | 0hPa | 0V | 00:00:00 | 00:00:00 | 00:00:00 | |
| KRY50SP | 2026-09-04 23:54:23 | 51.12009 | 17.92579 | 79° | 130km/h | 11231m | 5.0m/s | 0°C | 0% | 0hPa | 0V | 00:00:00 | 00:00:00 | 00:00:00 | |
| SP3BTT-10 | 2026-09-04 23:54:00 | 51.11840 | 17.91423 | 76° | 130km/h | 11150m | 3.5m/s | 0°C | 0% | 0hPa | 0V | 00:00:00 | 00:00:00 | 00:00:00 | |
| SP3BTT-10 | 2026-09-04 23:53:31 | 51.11623 | 17.89912 | 77° | 126km/h | 11046m | 3.5m/s | 0°C | 0% | 0hPa | 0V | 00:00:00 | 00:00:00 | 00:00:00 | |
| KRY50SP | 2026-09-04 23:52:54 | 51.11401 | 17.88092 | 79° | 124km/h | 10904m | 3.9m/s | 0°C | 0% | 0hPa | 0V | 00:00:00 | 00:00:00 | 00:00:00 | |
| SQ6EMJ | 2026-09-04 23:52:45 | 51.11349 | 17.87621 | 75° | 128km/h | 10868m | 3.6m/s | 0°C | 0% | 0hPa | 0V | 00:00:00 | 00:00:00 | 00:00:00 | |
| SQ6EMJ | 2026-09-04 23:52:26 | 51.11227 | 17.86660 | 79° | 133km/h | 10788m | 3.0m/s | 0°C | 0% | 0hPa | 0V | 00:00:00 | 00:00:00 | 00:00:00 | |
| KRY50SP | 2026-09-04 23:52:25 | 51.11221 | 17.86606 | 80° | 139km/h | 10784m | 3.5m/s | 0°C | 0% | 0hPa | 0V | 00:00:00 | 00:00:00 | 00:00:00 | |
| SQ6EMJ | 2026-09-04 23:52:16 | 51.11173 | 17.86147 | 81° | 120km/h | 10748m | 4.8m/s | 0°C | 0% | 0hPa | 0V | 00:00:00 | 00:00:00 | 00:00:00 | |
| SQ6EMJ | 2026-09-04 23:52:10 | 51.11124 | 17.85854 | 76° | 130km/h | 10720m | 5.0m/s | 0°C | 0% | 0hPa | 0V | 00:00:00 | 00:00:00 | 00:00:00 | |
| SQ6EMJ | 2026-09-04 23:52:04 | 51.11097 | 17.85542 | 84° | 124km/h | 10691m | 5.1m/s | 0°C | 0% | 0hPa | 0V | 00:00:00 | 00:00:00 | 00:00:00 | |
| SP3BTT-10 | 2026-09-04 23:51:45 | 51.10986 | 17.84618 | 79° | 126km/h | 10601m | 4.9m/s | 0°C | 0% | 0hPa | 0V | 00:00:00 | 00:00:00 | 00:00:00 | |
| SQ6EMJ | 2026-09-04 23:51:13 | 51.10797 | 17.83015 | 78° | 126km/h | 10447m | 5.0m/s | 0°C | 0% | 0hPa | 0V | 00:00:00 | 00:00:00 | 00:00:00 | |
| SQ6EMJ | 2026-09-04 23:50:57 | 51.10723 | 17.82217 | 87° | 124km/h | 10370m | 5.5m/s | 0°C | 0% | 0hPa | 0V | 00:00:00 | 00:00:00 | 00:00:00 | |
| SP3BTT-10 | 2026-09-04 23:50:54 | 51.10713 | 17.82064 | 84° | 126km/h | 10354m | 5.4m/s | 0°C | 0% | 0hPa | 0V | 00:00:00 | 00:00:00 | 00:00:00 | |
| SQ6EMJ | 2026-09-04 23:50:49 | 51.10687 | 17.81807 | 80° | 124km/h | 10330m | 4.4m/s | 0°C | 0% | 0hPa | 0V | 00:00:00 | 00:00:00 | 00:00:00 | |
| SQ6EMJ | 2026-09-04 23:50:43 | 51.10655 | 17.81513 | 83° | 126km/h | 10303m | 5.5m/s | 0°C | 0% | 0hPa | 0V | 00:00:00 | 00:00:00 | 00:00:00 | |
| SQ6EMJ | 2026-09-04 23:50:37 | 51.10627 | 17.81216 | 82° | 124km/h | 10277m | 3.9m/s | 0°C | 0% | 0hPa | 0V | 00:00:00 | 00:00:00 | 00:00:00 | |
| SP3BTT-10 | 2026-09-04 23:50:24 | 51.10566 | 17.80574 | 83° | 120km/h | 10227m | 4.0m/s | 0°C | 0% | 0hPa | 0V | 00:00:00 | 00:00:00 | 00:00:00 | |
| KRY50SP | 2026-09-04 23:50:11 | 51.10502 | 17.79943 | 83° | 120km/h | 10176m | 3.8m/s | 0°C | 0% | 0hPa | 0V | 00:00:00 | 00:00:00 | 00:00:00 | |
| SQ6EMJ | 2026-09-04 23:50:04 | 51.10464 | 17.79597 | 80° | 124km/h | 10149m | 4.7m/s | 0°C | 0% | 0hPa | 0V | 00:00:00 | 00:00:00 | 00:00:00 | |
| KRY50SP | 2026-09-04 23:49:58 | 51.10435 | 17.79306 | 80° | 126km/h | 10125m | 3.9m/s | 0°C | 0% | 0hPa | 0V | 00:00:00 | 00:00:00 | 00:00:00 | |
| SQ6EMJ | 2026-09-04 23:49:56 | 51.10423 | 17.79207 | 81° | 122km/h | 10117m | 4.4m/s | 0°C | 0% | 0hPa | 0V | 00:00:00 | 00:00:00 | 00:00:00 | |
| SQ6EMJ | 2026-09-04 23:49:50 | 51.10391 | 17.78920 | 82° | 120km/h | 10093m | 3.8m/s | 0°C | 0% | 0hPa | 0V | 00:00:00 | 00:00:00 | 00:00:00 | |
| SQ6EMJ | 2026-09-04 23:49:44 | 51.10356 | 17.78630 | 79° | 117km/h | 10068m | 5.0m/s | 0°C | 0% | 0hPa | 0V | 00:00:00 | 00:00:00 | 00:00:00 | |
| SP3BTT-10 | 2026-09-04 23:49:39 | 51.10326 | 17.78397 | 80° | 124km/h | 10046m | 4.9m/s | 0°C | 0% | 0hPa | 0V | 00:00:00 | 00:00:00 | 00:00:00 | |
| KRY50SP | 2026-09-04 23:49:28 | 51.10262 | 17.77873 | 76° | 122km/h | 10001m | 4.1m/s | 0°C | 0% | 0hPa | 0V | 00:00:00 | 00:00:00 | 00:00:00 | |
| SQ6EMJ | 2026-09-04 23:49:24 | 51.10233 | 17.77668 | 82° | 131km/h | 9984m | 5.0m/s | 0°C | 0% | 0hPa | 0V | 00:00:00 | 00:00:00 | 00:00:00 | |
| KRY50SP | 2026-09-04 23:49:23 | 51.10228 | 17.77617 | 82° | 124km/h | 9979m | 4.2m/s | 0°C | 0% | 0hPa | 0V | 00:00:00 | 00:00:00 | 00:00:00 | |
| KRY50SP | 2026-09-04 23:49:14 | 51.10177 | 17.77178 | 83° | 117km/h | 9935m | 3.9m/s | 0°C | 0% | 0hPa | 0V | 00:00:00 | 00:00:00 | 00:00:00 | |
| SQ6EMJ | 2026-09-04 23:48:53 | 51.10032 | 17.76193 | 77° | 119km/h | 9839m | 5.2m/s | 0°C | 0% | 0hPa | 0V | 00:00:00 | 00:00:00 | 00:00:00 | |
| SQ6EMJ | 2026-09-04 23:48:47 | 51.09991 | 17.75894 | 80° | 128km/h | 9806m | 4.2m/s | 0°C | 0% | 0hPa | 0V | 00:00:00 | 00:00:00 | 00:00:00 | |
| SQ6EMJ | 2026-09-04 23:48:42 | 51.09963 | 17.75645 | 80° | 124km/h | 9779m | 4.3m/s | 0°C | 0% | 0hPa | 0V | 00:00:00 | 00:00:00 | 00:00:00 | |
| SQ6EMJ | 2026-09-04 23:48:27 | 51.09862 | 17.74919 | 79° | 122km/h | 9712m | 5.2m/s | 0°C | 0% | 0hPa | 0V | 00:00:00 | 00:00:00 | 00:00:00 | |
| SQ6EMJ | 2026-09-04 23:48:22 | 51.09833 | 17.74671 | 83° | 126km/h | 9685m | 5.7m/s | 0°C | 0% | 0hPa | 0V | 00:00:00 | 00:00:00 | 00:00:00 | |
| SQ6EMJ | 2026-09-04 23:48:16 | 51.09803 | 17.74375 | 80° | 128km/h | 9660m | 4.1m/s | 0°C | 0% | 0hPa | 0V | 00:00:00 | 00:00:00 | 00:00:00 | |
| KRY50SP | 2026-09-04 23:48:12 | 51.09779 | 17.74167 | 83° | 133km/h | 9641m | 7.4m/s | 0°C | 0% | 0hPa | 0V | 00:00:00 | 00:00:00 | 00:00:00 | |
| SQ6EMJ | 2026-09-04 23:48:10 | 51.09772 | 17.74060 | 87° | 133km/h | 9629m | 7.1m/s | 0°C | 0% | 0hPa | 0V | 00:00:00 | 00:00:00 | 00:00:00 | |
| SQ6EMJ | 2026-09-04 23:47:59 | 51.09718 | 17.73494 | 83° | 133km/h | 9583m | 4.6m/s | 0°C | 0% | 0hPa | 0V | 00:00:00 | 00:00:00 | 00:00:00 | |
| SQ6EMJ | 2026-09-04 23:47:49 | 51.09668 | 17.72958 | 85° | 137km/h | 9535m | 5.3m/s | 0°C | 0% | 0hPa | 0V | 00:00:00 | 00:00:00 | 00:00:00 | |
| SQ6EMJ | 2026-09-04 23:47:43 | 51.09640 | 17.72623 | 85° | 135km/h | 9508m | 3.9m/s | 0°C | 0% | 0hPa | 0V | 00:00:00 | 00:00:00 | 00:00:00 | |
| SQ6EMJ | 2026-09-04 23:47:34 | 51.09597 | 17.72145 | 85° | 126km/h | 9471m | 5.4m/s | 0°C | 0% | 0hPa | 0V | 00:00:00 | 00:00:00 | 00:00:00 | |
| SQ6EMJ | 2026-09-04 23:47:27 | 51.09572 | 17.71769 | 85° | 137km/h | 9436m | 4.9m/s | 0°C | 0% | 0hPa | 0V | 00:00:00 | 00:00:00 | 00:00:00 | |
| SP3BTT-10 | 2026-09-04 23:47:26 | 51.09569 | 17.71714 | 86° | 135km/h | 9431m | 3.9m/s | 0°C | 0% | 0hPa | 0V | 00:00:00 | 00:00:00 | 00:00:00 | |
| SQ6EMJ | 2026-09-04 23:47:21 | 51.09555 | 17.71449 | 84° | 139km/h | 9411m | 3.5m/s | 0°C | 0% | 0hPa | 0V | 00:00:00 | 00:00:00 | 00:00:00 | |
| SQ6EMJ | 2026-09-04 23:47:15 | 51.09534 | 17.71116 | 85° | 133km/h | 9382m | 5.7m/s | 0°C | 0% | 0hPa | 0V | 00:00:00 | 00:00:00 | 00:00:00 | |
| SQ6EMJ | 2026-09-04 23:47:09 | 51.09514 | 17.70791 | 89° | 150km/h | 9355m | 4.9m/s | 0°C | 0% | 0hPa | 0V | 00:00:00 | 00:00:00 | 00:00:00 | |
| SQ6EMJ | 2026-09-04 23:47:04 | 51.09511 | 17.70503 | 86° | 135km/h | 9332m | 6.6m/s | 0°C | 0% | 0hPa | 0V | 00:00:00 | 00:00:00 | 00:00:00 | |
| SQ6EMJ | 2026-09-04 23:46:59 | 51.09493 | 17.70231 | 86° | 141km/h | 9303m | 4.0m/s | 0°C | 0% | 0hPa | 0V | 00:00:00 | 00:00:00 | 00:00:00 | |
| SQ6EMJ | 2026-09-04 23:46:49 | 51.09471 | 17.69662 | 89° | 135km/h | 9259m | 4.2m/s | 0°C | 0% | 0hPa | 0V | 00:00:00 | 00:00:00 | 00:00:00 | |
| SQ6EMJ | 2026-09-04 23:46:44 | 51.09467 | 17.69388 | 89° | 137km/h | 9238m | 4.6m/s | 0°C | 0% | 0hPa | 0V | 00:00:00 | 00:00:00 | 00:00:00 | |
| SP3BTT-10 | 2026-09-04 23:46:43 | 51.09466 | 17.69332 | 89° | 137km/h | 9234m | 3.3m/s | 0°C | 0% | 0hPa | 0V | 00:00:00 | 00:00:00 | 00:00:00 | |
| SQ6EMJ | 2026-09-04 23:46:37 | 51.09456 | 17.68999 | 92° | 137km/h | 9214m | 3.4m/s | 0°C | 0% | 0hPa | 0V | 00:00:00 | 00:00:00 | 00:00:00 | |
| SQ6EMJ | 2026-09-04 23:46:26 | 51.09448 | 17.68391 | 95° | 135km/h | 9175m | 4.4m/s | 0°C | 0% | 0hPa | 0V | 00:00:00 | 00:00:00 | 00:00:00 | |
| SQ6EMJ | 2026-09-04 23:46:20 | 51.09461 | 17.68051 | 91° | 142km/h | 9154m | 3.2m/s | 0°C | 0% | 0hPa | 0V | 00:00:00 | 00:00:00 | 00:00:00 | |
| SQ6EMJ | 2026-09-04 23:46:14 | 51.09464 | 17.67723 | 93° | 139km/h | 9128m | 4.0m/s | 0°C | 0% | 0hPa | 0V | 00:00:00 | 00:00:00 | 00:00:00 | |
| SP3BTT-10 | 2026-09-04 23:46:13 | 51.09465 | 17.67666 | 91° | 137km/h | 9123m | 4.6m/s | 0°C | 0% | 0hPa | 0V | 00:00:00 | 00:00:00 | 00:00:00 | |
| SQ6EMJ | 2026-09-04 23:46:03 | 51.09465 | 17.67099 | 91° | 141km/h | 9081m | 2.3m/s | 0°C | 0% | 0hPa | 0V | 00:00:00 | 00:00:00 | 00:00:00 | |
| SQ6EMJ | 2026-09-04 23:45:53 | 51.09474 | 17.66539 | 90° | 131km/h | 9040m | 2.8m/s | 0°C | 0% | 0hPa | 0V | 00:00:00 | 00:00:00 | 00:00:00 | |
| KRY50SP | 2026-09-04 23:45:50 | 51.09470 | 17.66380 | 88° | 135km/h | 9030m | 2.7m/s | 0°C | 0% | 0hPa | 0V | 00:00:00 | 00:00:00 | 00:00:00 | |
| SQ6EMJ | 2026-09-04 23:45:46 | 51.09471 | 17.66164 | 97° | 131km/h | 9012m | 5.6m/s | 0°C | 0% | 0hPa | 0V | 00:00:00 | 00:00:00 | 00:00:00 | |
| KRY50SP | 2026-09-04 23:45:41 | 51.09484 | 17.65834 | 92° | 133km/h | 8987m | 4.5m/s | 0°C | 0% | 0hPa | 0V | 00:00:00 | 00:00:00 | 00:00:00 | |
| SQ6EMJ | 2026-09-04 23:45:34 | 51.09496 | 17.65502 | 93° | 141km/h | 8961m | 5.4m/s | 0°C | 0% | 0hPa | 0V | 00:00:00 | 00:00:00 | 00:00:00 | |
| KRY50SP | 2026-09-04 23:45:30 | 51.09498 | 17.65283 | 92° | 133km/h | 8944m | 4.3m/s | 0°C | 0% | 0hPa | 0V | 00:00:00 | 00:00:00 | 00:00:00 | |
| SQ6EMJ | 2026-09-04 23:45:26 | 51.09505 | 17.65060 | 95° | 139km/h | 8929m | 3.8m/s | 0°C | 0% | 0hPa | 0V | 00:00:00 | 00:00:00 | 00:00:00 | |
| SQ6EMJ | 2026-09-04 23:45:21 | 51.09509 | 17.64777 | 93° | 139km/h | 8908m | 5.3m/s | 0°C | 0% | 0hPa | 0V | 00:00:00 | 00:00:00 | 00:00:00 | |
| SQ6EMJ | 2026-09-04 23:45:16 | 51.09523 | 17.64452 | 96° | 137km/h | 8885m | 4.3m/s | 0°C | 0% | 0hPa | 0V | 00:00:00 | 00:00:00 | 00:00:00 | |
| SQ6EMJ | 2026-09-04 23:45:09 | 51.09539 | 17.64115 | 94° | 135km/h | 8865m | 4.2m/s | 0°C | 0% | 0hPa | 0V | 00:00:00 | 00:00:00 | 00:00:00 | |
| SP3BTT-10 | 2026-09-04 23:44:59 | 51.09560 | 17.63570 | 95° | 137km/h | 8833m | 3.8m/s | 0°C | 0% | 0hPa | 0V | 00:00:00 | 00:00:00 | 00:00:00 | |
| SQ6EMJ | 2026-09-04 23:44:58 | 51.09563 | 17.63513 | 96° | 142km/h | 8830m | 3.7m/s | 0°C | 0% | 0hPa | 0V | 00:00:00 | 00:00:00 | 00:00:00 | |
| SQ6EMJ | 2026-09-04 23:44:52 | 51.09577 | 17.63182 | 95° | 135km/h | 8807m | 4.7m/s | 0°C | 0% | 0hPa | 0V | 00:00:00 | 00:00:00 | 00:00:00 | |
| SQ6EMJ | 2026-09-04 23:44:47 | 51.09587 | 17.62907 | 96° | 137km/h | 8790m | 3.5m/s | 0°C | 0% | 0hPa | 0V | 00:00:00 | 00:00:00 | 00:00:00 | |
| SQ6EMJ | 2026-09-04 23:44:41 | 51.09594 | 17.62579 | 94° | 144km/h | 8771m | 3.3m/s | 0°C | 0% | 0hPa | 0V | 00:00:00 | 00:00:00 | 00:00:00 | |
| SQ6EMJ | 2026-09-04 23:44:35 | 51.09603 | 17.62256 | 89° | 137km/h | 8753m | 3.5m/s | 0°C | 0% | 0hPa | 0V | 00:00:00 | 00:00:00 | 00:00:00 | |
| SQ6EMJ | 2026-09-04 23:44:29 | 51.09611 | 17.61926 | 93° | 135km/h | 8734m | 2.9m/s | 0°C | 0% | 0hPa | 0V | 00:00:00 | 00:00:00 | 00:00:00 | |
| SQ6EMJ | 2026-09-04 23:44:24 | 51.09618 | 17.61643 | 94° | 137km/h | 8717m | 2.8m/s | 0°C | 0% | 0hPa | 0V | 00:00:00 | 00:00:00 | 00:00:00 | |
| SP3BTT-10 | 2026-09-04 23:44:22 | 51.09620 | 17.61534 | 91° | 137km/h | 8710m | 3.1m/s | 0°C | 0% | 0hPa | 0V | 00:00:00 | 00:00:00 | 00:00:00 | |
| SQ6EMJ | 2026-09-04 23:44:12 | 51.09630 | 17.60969 | 93° | 142km/h | 8676m | 3.3m/s | 0°C | 0% | 0hPa | 0V | 00:00:00 | 00:00:00 | 00:00:00 | |
| SQ6EMJ | 2026-09-04 23:44:07 | 51.09632 | 17.60688 | 92° | 139km/h | 8659m | 3.9m/s | 0°C | 0% | 0hPa | 0V | 00:00:00 | 00:00:00 | 00:00:00 | |
| SQ6EMJ | 2026-09-04 23:44:02 | 51.09639 | 17.60420 | 91° | 137km/h | 8641m | 5.4m/s | 0°C | 0% | 0hPa | 0V | 00:00:00 | 00:00:00 | 00:00:00 | |
| SQ6EMJ | 2026-09-04 23:43:56 | 51.09639 | 17.60078 | 91° | 131km/h | 8605m | 7.4m/s | 0°C | 0% | 0hPa | 0V | 00:00:00 | 00:00:00 | 00:00:00 | |
| SQ6EMJ | 2026-09-04 23:43:50 | 51.09649 | 17.59756 | 93° | 144km/h | 8574m | 5.1m/s | 0°C | 0% | 0hPa | 0V | 00:00:00 | 00:00:00 | 00:00:00 | |
| SQ6EMJ | 2026-09-04 23:43:45 | 51.09659 | 17.59471 | 94° | 135km/h | 8549m | 5.6m/s | 0°C | 0% | 0hPa | 0V | 00:00:00 | 00:00:00 | 00:00:00 | |
| SQ6EMJ | 2026-09-04 23:43:40 | 51.09666 | 17.59200 | 93° | 137km/h | 8521m | 5.0m/s | 0°C | 0% | 0hPa | 0V | 00:00:00 | 00:00:00 | 00:00:00 | |
| SQ6EMJ | 2026-09-04 23:43:34 | 51.09680 | 17.58869 | 93° | 139km/h | 8494m | 4.8m/s | 0°C | 0% | 0hPa | 0V | 00:00:00 | 00:00:00 | 00:00:00 | |
| SQ6EMJ | 2026-09-04 23:43:28 | 51.09687 | 17.58532 | 94° | 141km/h | 8462m | 3.9m/s | 0°C | 0% | 0hPa | 0V | 00:00:00 | 00:00:00 | 00:00:00 | |
| SQ6EMJ | 2026-09-04 23:43:22 | 51.09698 | 17.58202 | 94° | 146km/h | 8438m | 3.3m/s | 0°C | 0% | 0hPa | 0V | 00:00:00 | 00:00:00 | 00:00:00 | |
| SQ6EMJ | 2026-09-04 23:43:16 | 51.09711 | 17.57865 | 94° | 142km/h | 8414m | 4.9m/s | 0°C | 0% | 0hPa | 0V | 00:00:00 | 00:00:00 | 00:00:00 | |
| SQ6EMJ | 2026-09-04 23:43:10 | 51.09722 | 17.57526 | 94° | 141km/h | 8387m | 5.3m/s | 0°C | 0% | 0hPa | 0V | 00:00:00 | 00:00:00 | 00:00:00 | |
| SQ6EMJ | 2026-09-04 23:43:05 | 51.09727 | 17.57243 | 93° | 146km/h | 8363m | 4.5m/s | 0°C | 0% | 0hPa | 0V | 00:00:00 | 00:00:00 | 00:00:00 | |
| SQ6EMJ | 2026-09-04 23:42:59 | 51.09736 | 17.56910 | 92° | 142km/h | 8333m | 6.7m/s | 0°C | 0% | 0hPa | 0V | 00:00:00 | 00:00:00 | 00:00:00 | |
| SQ6EMJ | 2026-09-04 23:42:54 | 51.09743 | 17.56618 | 90° | 139km/h | 8304m | 6.2m/s | 0°C | 0% | 0hPa | 0V | 00:00:00 | 00:00:00 | 00:00:00 | |
| SQ6EMJ | 2026-09-04 23:42:49 | 51.09740 | 17.56349 | 88° | 137km/h | 8279m | 4.2m/s | 0°C | 0% | 0hPa | 0V | 00:00:00 | 00:00:00 | 00:00:00 | |
| SQ6EMJ | 2026-09-04 23:42:43 | 51.09739 | 17.56011 | 92° | 142km/h | 8247m | 5.4m/s | 0°C | 0% | 0hPa | 0V | 00:00:00 | 00:00:00 | 00:00:00 | |
| SQ6EMJ | 2026-09-04 23:42:37 | 51.09740 | 17.55681 | 91° | 137km/h | 8217m | 5.2m/s | 0°C | 0% | 0hPa | 0V | 00:00:00 | 00:00:00 | 00:00:00 | |
| SQ6EMJ | 2026-09-04 23:42:30 | 51.09739 | 17.55289 | 91° | 131km/h | 8185m | 3.4m/s | 0°C | 0% | 0hPa | 0V | 00:00:00 | 00:00:00 | 00:00:00 | |
| SQ6EMJ | 2026-09-04 23:42:25 | 51.09729 | 17.55017 | 90° | 137km/h | 8164m | 3.9m/s | 0°C | 0% | 0hPa | 0V | 00:00:00 | 00:00:00 | 00:00:00 | |
| SQ6EMJ | 2026-09-04 23:42:19 | 51.09731 | 17.54694 | 88° | 139km/h | 8132m | 6.8m/s | 0°C | 0% | 0hPa | 0V | 00:00:00 | 00:00:00 | 00:00:00 | |
| SQ6EMJ | 2026-09-04 23:42:13 | 51.09732 | 17.54353 | 90° | 141km/h | 8099m | 5.7m/s | 0°C | 0% | 0hPa | 0V | 00:00:00 | 00:00:00 | 00:00:00 | |
| SQ6EMJ | 2026-09-04 23:42:08 | 51.09732 | 17.54064 | 91° | 142km/h | 8071m | 5.3m/s | 0°C | 0% | 0hPa | 0V | 00:00:00 | 00:00:00 | 00:00:00 | |
| SQ6EMJ | 2026-09-04 23:42:02 | 51.09737 | 17.53745 | 95° | 130km/h | 8038m | 6.4m/s | 0°C | 0% | 0hPa | 0V | 00:00:00 | 00:00:00 | 00:00:00 | |
| SQ6EMJ | 2026-09-04 23:41:56 | 51.09747 | 17.53420 | 93° | 131km/h | 8006m | 4.7m/s | 0°C | 0% | 0hPa | 0V | 00:00:00 | 00:00:00 | 00:00:00 | |
| SQ6EMJ | 2026-09-04 23:41:51 | 51.09746 | 17.53136 | 91° | 150km/h | 7982m | 4.1m/s | 0°C | 0% | 0hPa | 0V | 00:00:00 | 00:00:00 | 00:00:00 | |
| SQ6EMJ | 2026-09-04 23:41:45 | 51.09745 | 17.52795 | 91° | 130km/h | 7946m | 7.2m/s | 0°C | 0% | 0hPa | 0V | 00:00:00 | 00:00:00 | 00:00:00 | |
| SQ6EMJ | 2026-09-04 23:41:41 | 51.09751 | 17.52538 | 95° | 135km/h | 7916m | 7.1m/s | 0°C | 0% | 0hPa | 0V | 00:00:00 | 00:00:00 | 00:00:00 | |
| SP3BTT-10 | 2026-09-04 23:41:36 | 51.09758 | 17.52313 | 90° | 135km/h | 7892m | 4.9m/s | 0°C | 0% | 0hPa | 0V | 00:00:00 | 00:00:00 | 00:00:00 | |
| SQ6EMJ | 2026-09-04 23:41:35 | 51.09758 | 17.52256 | 89° | 141km/h | 7887m | 5.7m/s | 0°C | 0% | 0hPa | 0V | 00:00:00 | 00:00:00 | 00:00:00 | |
| SQ6EMJ | 2026-09-04 23:41:29 | 51.09763 | 17.51935 | 95° | 137km/h | 7858m | 4.5m/s | 0°C | 0% | 0hPa | 0V | 00:00:00 | 00:00:00 | 00:00:00 | |
| SQ6EMJ | 2026-09-04 23:41:23 | 51.09771 | 17.51584 | 92° | 150km/h | 7825m | 5.8m/s | 0°C | 0% | 0hPa | 0V | 00:00:00 | 00:00:00 | 00:00:00 | |
| SQ6EMJ | 2026-09-04 23:41:17 | 51.09777 | 17.51266 | 94° | 131km/h | 7795m | 6.4m/s | 0°C | 0% | 0hPa | 0V | 00:00:00 | 00:00:00 | 00:00:00 | |
| SQ6EMJ | 2026-09-04 23:41:11 | 51.09779 | 17.50941 | 93° | 133km/h | 7763m | 4.4m/s | 0°C | 0% | 0hPa | 0V | 00:00:00 | 00:00:00 | 00:00:00 | |
| SQ6EMJ | 2026-09-04 23:41:05 | 51.09782 | 17.50618 | 89° | 133km/h | 7734m | 5.4m/s | 0°C | 0% | 0hPa | 0V | 00:00:00 | 00:00:00 | 00:00:00 | |
| SQ6EMJ | 2026-09-04 23:40:59 | 51.09779 | 17.50306 | 93° | 128km/h | 7700m | 5.0m/s | 0°C | 0% | 0hPa | 0V | 00:00:00 | 00:00:00 | 00:00:00 | |
| SQ6EMJ | 2026-09-04 23:40:53 | 51.09782 | 17.49975 | 91° | 148km/h | 7669m | 3.8m/s | 0°C | 0% | 0hPa | 0V | 00:00:00 | 00:00:00 | 00:00:00 | |
| SP3BTT-10 | 2026-09-04 23:40:52 | 51.09782 | 17.49916 | 92° | 142km/h | 7665m | 4.6m/s | 0°C | 0% | 0hPa | 0V | 00:00:00 | 00:00:00 | 00:00:00 | |
| SQ6EMJ | 2026-09-04 23:40:47 | 51.09784 | 17.49631 | 87° | 139km/h | 7644m | 5.0m/s | 0°C | 0% | 0hPa | 0V | 00:00:00 | 00:00:00 | 00:00:00 | |
| SQ6EMJ | 2026-09-04 23:40:41 | 51.09778 | 17.49291 | 92° | 144km/h | 7609m | 5.2m/s | 0°C | 0% | 0hPa | 0V | 00:00:00 | 00:00:00 | 00:00:00 | |
| SQ6EMJ | 2026-09-04 23:40:35 | 51.09772 | 17.48967 | 87° | 124km/h | 7582m | 3.2m/s | 0°C | 0% | 0hPa | 0V | 00:00:00 | 00:00:00 | 00:00:00 | |
| SQ6EMJ | 2026-09-04 23:40:29 | 51.09777 | 17.48629 | 93° | 142km/h | 7551m | 5.7m/s | 0°C | 0% | 0hPa | 0V | 00:00:00 | 00:00:00 | 00:00:00 | |
| SQ6EMJ | 2026-09-04 23:40:24 | 51.09778 | 17.48359 | 90° | 128km/h | 7527m | 4.1m/s | 0°C | 0% | 0hPa | 0V | 00:00:00 | 00:00:00 | 00:00:00 | |
| SQ6EMJ | 2026-09-04 23:40:18 | 51.09765 | 17.48034 | 91° | 133km/h | 7503m | 4.7m/s | 0°C | 0% | 0hPa | 0V | 00:00:00 | 00:00:00 | 00:00:00 | |
| SQ6EMJ | 2026-09-04 23:40:12 | 51.09770 | 17.47735 | 90° | 124km/h | 7471m | 4.8m/s | 0°C | 0% | 0hPa | 0V | 00:00:00 | 00:00:00 | 00:00:00 | |
| SQ6EMJ | 2026-09-04 23:40:06 | 51.09766 | 17.47435 | 92° | 131km/h | 7444m | 4.8m/s | 0°C | 0% | 0hPa | 0V | 00:00:00 | 00:00:00 | 00:00:00 | |
| SQ6EMJ | 2026-09-04 23:40:01 | 51.09756 | 17.47175 | 84° | 128km/h | 7419m | 4.2m/s | 0°C | 0% | 0hPa | 0V | 00:00:00 | 00:00:00 | 00:00:00 | |
| SQ6EMJ | 2026-09-04 23:39:55 | 51.09745 | 17.46876 | 92° | 124km/h | 7394m | 6.5m/s | 0°C | 0% | 0hPa | 0V | 00:00:00 | 00:00:00 | 00:00:00 | |
| SQ6EMJ | 2026-09-04 23:39:50 | 51.09751 | 17.46618 | 92° | 130km/h | 7371m | 3.9m/s | 0°C | 0% | 0hPa | 0V | 00:00:00 | 00:00:00 | 00:00:00 | |
| SQ6EMJ | 2026-09-04 23:39:45 | 51.09756 | 17.46366 | 91° | 131km/h | 7350m | 4.1m/s | 0°C | 0% | 0hPa | 0V | 00:00:00 | 00:00:00 | 00:00:00 | |
| SQ6EMJ | 2026-09-04 23:39:39 | 51.09761 | 17.46047 | 92° | 128km/h | 7323m | 4.3m/s | 0°C | 0% | 0hPa | 0V | 00:00:00 | 00:00:00 | 00:00:00 | |
| SQ6EMJ | 2026-09-04 23:39:33 | 51.09770 | 17.45734 | 91° | 122km/h | 7298m | 4.7m/s | 0°C | 0% | 0hPa | 0V | 00:00:00 | 00:00:00 | 00:00:00 | |
| SQ6EMJ | 2026-09-04 23:39:27 | 51.09762 | 17.45436 | 88° | 120km/h | 7272m | 6.5m/s | 0°C | 0% | 0hPa | 0V | 00:00:00 | 00:00:00 | 00:00:00 | |
| SQ6EMJ | 2026-09-04 23:39:21 | 51.09751 | 17.45136 | 89° | 128km/h | 7245m | 5.9m/s | 0°C | 0% | 0hPa | 0V | 00:00:00 | 00:00:00 | 00:00:00 | |
| SQ6EMJ | 2026-09-04 23:39:14 | 51.09755 | 17.44782 | 87° | 139km/h | 7213m | 5.2m/s | 0°C | 0% | 0hPa | 0V | 00:00:00 | 00:00:00 | 00:00:00 | |
| SQ6EMJ | 2026-09-04 23:39:08 | 51.09751 | 17.44464 | 93° | 126km/h | 7181m | 4.5m/s | 0°C | 0% | 0hPa | 0V | 00:00:00 | 00:00:00 | 00:00:00 | |
| SQ6EMJ | 2026-09-04 23:39:02 | 51.09743 | 17.44152 | 89° | 144km/h | 7159m | 3.0m/s | 0°C | 0% | 0hPa | 0V | 00:00:00 | 00:00:00 | 00:00:00 | |
| SQ6EMJ | 2026-09-04 23:38:56 | 51.09741 | 17.43823 | 86° | 126km/h | 7136m | 6.9m/s | 0°C | 0% | 0hPa | 0V | 00:00:00 | 00:00:00 | 00:00:00 | |
| SQ6EMJ | 2026-09-04 23:38:49 | 51.09734 | 17.43444 | 92° | 124km/h | 7099m | 4.3m/s | 0°C | 0% | 0hPa | 0V | 00:00:00 | 00:00:00 | 00:00:00 | |
| SQ6EMJ | 2026-09-04 23:38:41 | 51.09729 | 17.43023 | 95° | 135km/h | 7064m | 4.8m/s | 0°C | 0% | 0hPa | 0V | 00:00:00 | 00:00:00 | 00:00:00 | |
| SQ6EMJ | 2026-09-04 23:38:36 | 51.09723 | 17.42768 | 85° | 131km/h | 7042m | 3.5m/s | 0°C | 0% | 0hPa | 0V | 00:00:00 | 00:00:00 | 00:00:00 | |
| SQ6EMJ | 2026-09-04 23:38:31 | 51.09719 | 17.42445 | 95° | 126km/h | 7021m | 4.7m/s | 0°C | 0% | 0hPa | 0V | 00:00:00 | 00:00:00 | 00:00:00 | |
| POL1PZ | 2026-09-04 23:38:24 | 51.09718 | 17.42140 | 92° | 119km/h | 6994m | 4.4m/s | 0°C | 0% | 0hPa | 0V | 00:00:00 | 00:00:00 | 00:00:00 | |
| SQ6EMJ | 2026-09-04 23:38:18 | 51.09722 | 17.41833 | 90° | 131km/h | 6970m | 6.2m/s | 0°C | 0% | 0hPa | 0V | 00:00:00 | 00:00:00 | 00:00:00 | |
| SQ6EMJ | 2026-09-04 23:38:12 | 51.09723 | 17.41516 | 95° | 133km/h | 6942m | 4.6m/s | 0°C | 0% | 0hPa | 0V | 00:00:00 | 00:00:00 | 00:00:00 | |
| SQ6EMJ | 2026-09-04 23:38:06 | 51.09728 | 17.41204 | 86° | 142km/h | 6921m | 4.0m/s | 0°C | 0% | 0hPa | 0V | 00:00:00 | 00:00:00 | 00:00:00 | |
| POL1PZ | 2026-09-04 23:38:03 | 51.09719 | 17.41033 | 87° | 139km/h | 6909m | 3.9m/s | 0°C | 0% | 0hPa | 0V | 00:00:00 | 00:00:00 | 00:00:00 | |
| SQ6EMJ | 2026-09-04 23:38:00 | 51.09713 | 17.40873 | 89° | 126km/h | 6893m | 5.5m/s | 0°C | 0% | 0hPa | 0V | 00:00:00 | 00:00:00 | 00:00:00 | |
| SQ6EMJ | 2026-09-04 23:37:54 | 51.09710 | 17.40583 | 92° | 128km/h | 6869m | 4.0m/s | 0°C | 0% | 0hPa | 0V | 00:00:00 | 00:00:00 | 00:00:00 | |
| SQ6EMJ | 2026-09-04 23:37:48 | 51.09716 | 17.40268 | 89° | 135km/h | 6845m | 5.9m/s | 0°C | 0% | 0hPa | 0V | 00:00:00 | 00:00:00 | 00:00:00 | |
| POL1PZ | 2026-09-04 23:37:43 | 51.09710 | 17.40013 | 88° | 120km/h | 6821m | 5.1m/s | 0°C | 0% | 0hPa | 0V | 00:00:00 | 00:00:00 | 00:00:00 | |
| SQ6EMJ | 2026-09-04 23:37:42 | 51.09709 | 17.39964 | 88° | 126km/h | 6817m | 2.7m/s | 0°C | 0% | 0hPa | 0V | 00:00:00 | 00:00:00 | 00:00:00 | |
| SQ6EMJ | 2026-09-04 23:37:36 | 51.09712 | 17.39649 | 91° | 124km/h | 6799m | 3.1m/s | 0°C | 0% | 0hPa | 0V | 00:00:00 | 00:00:00 | 00:00:00 | |
| SQ6EMJ | 2026-09-04 23:37:30 | 51.09715 | 17.39330 | 94° | 142km/h | 6781m | 3.0m/s | 0°C | 0% | 0hPa | 0V | 00:00:00 | 00:00:00 | 00:00:00 | |
| SQ6EMJ | 2026-09-04 23:37:23 | 51.09706 | 17.38945 | 92° | 133km/h | 6747m | 4.7m/s | 0°C | 0% | 0hPa | 0V | 00:00:00 | 00:00:00 | 00:00:00 | |
| POL1PZ | 2026-09-04 23:37:22 | 51.09709 | 17.38842 | 94° | 124km/h | 6739m | 3.4m/s | 0°C | 0% | 0hPa | 0V | 00:00:00 | 00:00:00 | 00:00:00 | |
| SQ6EMJ | 2026-09-04 23:37:18 | 51.09709 | 17.38689 | 89° | 133km/h | 6727m | 4.8m/s | 0°C | 0% | 0hPa | 0V | 00:00:00 | 00:00:00 | 00:00:00 | |
| SQ6EMJ | 2026-09-04 23:37:12 | 51.09705 | 17.38351 | 88° | 135km/h | 6703m | 5.9m/s | 0°C | 0% | 0hPa | 0V | 00:00:00 | 00:00:00 | 00:00:00 | |
| SQ6EMJ | 2026-09-04 23:37:06 | 51.09701 | 17.38029 | 94° | 141km/h | 6678m | 3.7m/s | 0°C | 0% | 0hPa | 0V | 00:00:00 | 00:00:00 | 00:00:00 | |
| SQ6EMJ | 2026-09-04 23:37:01 | 51.09695 | 17.37749 | 88° | 128km/h | 6660m | 5.1m/s | 0°C | 0% | 0hPa | 0V | 00:00:00 | 00:00:00 | 00:00:00 | |
| POL1PZ | 2026-09-04 23:36:59 | 51.09696 | 17.37649 | 95° | 122km/h | 6651m | 5.2m/s | 0°C | 0% | 0hPa | 0V | 00:00:00 | 00:00:00 | 00:00:00 | |
| SQ6EMJ | 2026-09-04 23:36:55 | 51.09697 | 17.37450 | 86° | 126km/h | 6632m | 5.3m/s | 0°C | 0% | 0hPa | 0V | 00:00:00 | 00:00:00 | 00:00:00 | |
| SQ6EMJ | 2026-09-04 23:36:49 | 51.09696 | 17.37143 | 92° | 131km/h | 6603m | 5.4m/s | 0°C | 0% | 0hPa | 0V | 00:00:00 | 00:00:00 | 00:00:00 | |
| SQ6EMJ | 2026-09-04 23:36:44 | 51.09695 | 17.36834 | 91° | 130km/h | 6574m | 3.4m/s | 0°C | 0% | 0hPa | 0V | 00:00:00 | 00:00:00 | 00:00:00 | |
| POL1PZ | 2026-09-04 23:36:38 | 51.09700 | 17.36592 | 98° | 119km/h | 6558m | 2.0m/s | 0°C | 0% | 0hPa | 0V | 00:00:00 | 00:00:00 | 00:00:00 | |
| SQ6EMJ | 2026-09-04 23:36:32 | 51.09705 | 17.36303 | 87° | 133km/h | 6532m | 6.3m/s | 0°C | 0% | 0hPa | 0V | 00:00:00 | 00:00:00 | 00:00:00 | |
| SQ6EMJ | 2026-09-04 23:36:27 | 51.09709 | 17.36029 | 94° | 126km/h | 6507m | 5.4m/s | 0°C | 0% | 0hPa | 0V | 00:00:00 | 00:00:00 | 00:00:00 | |
| SQ6EMJ | 2026-09-04 23:36:21 | 51.09716 | 17.35729 | 90° | 141km/h | 6474m | 4.1m/s | 0°C | 0% | 0hPa | 0V | 00:00:00 | 00:00:00 | 00:00:00 | |
| POL1PZ | 2026-09-04 23:36:17 | 51.09713 | 17.35507 | 91° | 128km/h | 6458m | 5.1m/s | 0°C | 0% | 0hPa | 0V | 00:00:00 | 00:00:00 | 00:00:00 | |
| SQ6EMJ | 2026-09-04 23:36:15 | 51.09714 | 17.35410 | 94° | 117km/h | 6449m | 5.3m/s | 0°C | 0% | 0hPa | 0V | 00:00:00 | 00:00:00 | 00:00:00 | |
| SQ6EMJ | 2026-09-04 23:36:09 | 51.09732 | 17.35122 | 97° | 122km/h | 6425m | 3.4m/s | 0°C | 0% | 0hPa | 0V | 00:00:00 | 00:00:00 | 00:00:00 | |
| SQ6EMJ | 2026-09-04 23:36:03 | 51.09741 | 17.34801 | 92° | 128km/h | 6402m | 3.4m/s | 0°C | 0% | 0hPa | 0V | 00:00:00 | 00:00:00 | 00:00:00 | |
| SQ6EMJ | 2026-09-04 23:35:58 | 51.09745 | 17.34554 | 95° | 135km/h | 6378m | 5.6m/s | 0°C | 0% | 0hPa | 0V | 00:00:00 | 00:00:00 | 00:00:00 | |
| POL1PZ | 2026-09-04 23:35:57 | 51.09747 | 17.34498 | 95° | 141km/h | 6373m | 2.9m/s | 0°C | 0% | 0hPa | 0V | 00:00:00 | 00:00:00 | 00:00:00 | |
| SQ6EMJ | 2026-09-04 23:35:52 | 51.09748 | 17.34231 | 90° | 124km/h | 6352m | 5.4m/s | 0°C | 0% | 0hPa | 0V | 00:00:00 | 00:00:00 | 00:00:00 | |
| SQ6EMJ | 2026-09-04 23:35:46 | 51.09765 | 17.33915 | 95° | 126km/h | 6328m | 2.6m/s | 0°C | 0% | 0hPa | 0V | 00:00:00 | 00:00:00 | 00:00:00 | |
| SQ6EMJ | 2026-09-04 23:35:40 | 51.09748 | 17.33599 | 88° | 142km/h | 6293m | 5.0m/s | 0°C | 0% | 0hPa | 0V | 00:00:00 | 00:00:00 | 00:00:00 | |
| SQ6EMJ | 2026-09-04 23:35:34 | 51.09753 | 17.33280 | 91° | 128km/h | 6267m | 3.5m/s | 0°C | 0% | 0hPa | 0V | 00:00:00 | 00:00:00 | 00:00:00 | |
| POL1PZ | 2026-09-04 23:35:30 | 51.09749 | 17.33069 | 89° | 139km/h | 6246m | 5.2m/s | 0°C | 0% | 0hPa | 0V | 00:00:00 | 00:00:00 | 00:00:00 | |
| SQ6EMJ | 2026-09-04 23:35:29 | 51.09749 | 17.33012 | 91° | 144km/h | 6241m | 4.0m/s | 0°C | 0% | 0hPa | 0V | 00:00:00 | 00:00:00 | 00:00:00 | |
| SQ6EMJ | 2026-09-04 23:35:24 | 51.09740 | 17.32722 | 87° | 133km/h | 6223m | 6.1m/s | 0°C | 0% | 0hPa | 0V | 00:00:00 | 00:00:00 | 00:00:00 | |
| SQ6EMJ | 2026-09-04 23:35:20 | 51.09741 | 17.32476 | 88° | 135km/h | 6197m | 7.3m/s | 0°C | 0% | 0hPa | 0V | 00:00:00 | 00:00:00 | 00:00:00 | |
| SQ6EMJ | 2026-09-04 23:35:13 | 51.09736 | 17.32127 | 93° | 150km/h | 6167m | 4.2m/s | 0°C | 0% | 0hPa | 0V | 00:00:00 | 00:00:00 | 00:00:00 | |
| POL1PZ | 2026-09-04 23:35:09 | 51.09741 | 17.31887 | 91° | 142km/h | 6150m | 5.1m/s | 0°C | 0% | 0hPa | 0V | 00:00:00 | 00:00:00 | 00:00:00 | |
| SQ6EMJ | 2026-09-04 23:35:07 | 51.09741 | 17.31781 | 90° | 122km/h | 6138m | 7.7m/s | 0°C | 0% | 0hPa | 0V | 00:00:00 | 00:00:00 | 00:00:00 | |
| SQ6EMJ | 2026-09-04 23:35:01 | 51.09735 | 17.31492 | 88° | 128km/h | 6104m | 6.4m/s | 0°C | 0% | 0hPa | 0V | 00:00:00 | 00:00:00 | 00:00:00 | |
| SQ6EMJ | 2026-09-04 23:34:56 | 51.09719 | 17.31229 | 86° | 130km/h | 6077m | 3.9m/s | 0°C | 0% | 0hPa | 0V | 00:00:00 | 00:00:00 | 00:00:00 | |
| SQ6EMJ | 2026-09-04 23:34:50 | 51.09711 | 17.30898 | 93° | 142km/h | 6037m | 5.5m/s | 0°C | 0% | 0hPa | 0V | 00:00:00 | 00:00:00 | 00:00:00 | |
| POL1PZ | 2026-09-04 23:34:44 | 51.09725 | 17.30598 | 91° | 111km/h | 6010m | 5.4m/s | 0°C | 0% | 0hPa | 0V | 00:00:00 | 00:00:00 | 00:00:00 | |
| SQ6EMJ | 2026-09-04 23:34:38 | 51.09714 | 17.30290 | 88° | 144km/h | 5976m | 6.7m/s | 0°C | 0% | 0hPa | 0V | 00:00:00 | 00:00:00 | 00:00:00 | |
| SQ6EMJ | 2026-09-04 23:34:33 | 51.09705 | 17.29989 | 96° | 115km/h | 5936m | 7.2m/s | 0°C | 0% | 0hPa | 0V | 00:00:00 | 00:00:00 | 00:00:00 | |
| SQ6EMJ | 2026-09-04 23:34:26 | 51.09712 | 17.29658 | 89° | 142km/h | 5898m | 4.7m/s | 0°C | 0% | 0hPa | 0V | 00:00:00 | 00:00:00 | 00:00:00 | |
| POL1PZ | 2026-09-04 23:34:23 | 51.09705 | 17.29496 | 86° | 126km/h | 5881m | 6.4m/s | 0°C | 0% | 0hPa | 0V | 00:00:00 | 00:00:00 | 00:00:00 | |
| SQ6EMJ | 2026-09-04 23:34:20 | 51.09695 | 17.29349 | 84° | 122km/h | 5865m | 4.6m/s | 0°C | 0% | 0hPa | 0V | 00:00:00 | 00:00:00 | 00:00:00 | |
| OE3JTB-15 | 2026-09-04 23:34:17 | 51.09693 | 17.29195 | 95° | 137km/h | 5850m | 5.0m/s | 0°C | 0% | 0hPa | 0V | 00:00:00 | 00:00:00 | 00:00:00 | |
| SQ6EMJ | 2026-09-04 23:34:14 | 51.09702 | 17.29041 | 92° | 120km/h | 5827m | 7.5m/s | 0°C | 0% | 0hPa | 0V | 00:00:00 | 00:00:00 | 00:00:00 | |
| SQ6EMJ | 2026-09-04 23:34:09 | 51.09690 | 17.28798 | 91° | 119km/h | 5799m | 6.1m/s | 0°C | 0% | 0hPa | 0V | 00:00:00 | 00:00:00 | 00:00:00 | |
| SQ6EMJ | 2026-09-04 23:34:04 | 51.09703 | 17.28524 | 93° | 157km/h | 5769m | 5.7m/s | 0°C | 0% | 0hPa | 0V | 00:00:00 | 00:00:00 | 00:00:00 | |
| POL1PZ | 2026-09-04 23:34:03 | 51.09704 | 17.28462 | 90° | 153km/h | 5763m | 5.6m/s | 0°C | 0% | 0hPa | 0V | 00:00:00 | 00:00:00 | 00:00:00 | |
| SQ6EMJ | 2026-09-04 23:33:58 | 51.09686 | 17.28180 | 84° | 130km/h | 5730m | 4.8m/s | 0°C | 0% | 0hPa | 0V | 00:00:00 | 00:00:00 | 00:00:00 | |
| SQ6EMJ | 2026-09-04 23:33:52 | 51.09681 | 17.27869 | 88° | 131km/h | 5699m | 6.9m/s | 0°C | 0% | 0hPa | 0V | 00:00:00 | 00:00:00 | 00:00:00 | |
| SQ6EMJ | 2026-09-04 23:33:46 | 51.09664 | 17.27535 | 91° | 148km/h | 5659m | 6.3m/s | 0°C | 0% | 0hPa | 0V | 00:00:00 | 00:00:00 | 00:00:00 | |
| POL1PZ | 2026-09-04 23:33:42 | 51.09664 | 17.27312 | 91° | 130km/h | 5638m | 4.0m/s | 0°C | 0% | 0hPa | 0V | 00:00:00 | 00:00:00 | 00:00:00 | |
| SQ6EMJ | 2026-09-04 23:33:40 | 51.09662 | 17.27204 | 88° | 142km/h | 5630m | 4.5m/s | 0°C | 0% | 0hPa | 0V | 00:00:00 | 00:00:00 | 00:00:00 | |
| SQ6EMJ | 2026-09-04 23:33:35 | 51.09651 | 17.26910 | 89° | 131km/h | 5600m | 5.7m/s | 0°C | 0% | 0hPa | 0V | 00:00:00 | 00:00:00 | 00:00:00 | |
| SQ6EMJ | 2026-09-04 23:33:29 | 51.09637 | 17.26592 | 86° | 144km/h | 5570m | 7.1m/s | 0°C | 0% | 0hPa | 0V | 00:00:00 | 00:00:00 | 00:00:00 | |
| SQ6EMJ | 2026-09-04 23:33:24 | 51.09613 | 17.26303 | 87° | 151km/h | 5534m | 5.9m/s | 0°C | 0% | 0hPa | 0V | 00:00:00 | 00:00:00 | 00:00:00 | |
| POL1PZ | 2026-09-04 23:33:21 | 51.09604 | 17.26117 | 86° | 157km/h | 5520m | 2.7m/s | 0°C | 0% | 0hPa | 0V | 00:00:00 | 00:00:00 | 00:00:00 | |
| SQ6EMJ | 2026-09-04 23:33:18 | 51.09593 | 17.25931 | 85° | 155km/h | 5505m | 7.9m/s | 0°C | 0% | 0hPa | 0V | 00:00:00 | 00:00:00 | 00:00:00 | |
| SQ6EMJ | 2026-09-04 23:33:13 | 51.09566 | 17.25648 | 82° | 122km/h | 5474m | 4.8m/s | 0°C | 0% | 0hPa | 0V | 00:00:00 | 00:00:00 | 00:00:00 | |
| SQ6EMJ | 2026-09-04 23:33:07 | 51.09553 | 17.25329 | 90° | 148km/h | 5438m | 6.7m/s | 0°C | 0% | 0hPa | 0V | 00:00:00 | 00:00:00 | 00:00:00 | |
| POL1PZ | 2026-09-04 23:33:01 | 51.09518 | 17.24977 | 77° | 131km/h | 5402m | 5.7m/s | 0°C | 0% | 0hPa | 0V | 00:00:00 | 00:00:00 | 00:00:00 | |
| SQ6EMJ | 2026-09-04 23:32:55 | 51.09499 | 17.24673 | 88° | 141km/h | 5369m | 6.1m/s | 0°C | 0% | 0hPa | 0V | 00:00:00 | 00:00:00 | 00:00:00 | |
| SQ6EMJ | 2026-09-04 23:32:50 | 51.09469 | 17.24398 | 77° | 126km/h | 5336m | 5.3m/s | 0°C | 0% | 0hPa | 0V | 00:00:00 | 00:00:00 | 00:00:00 | |
| SQ6EMJ | 2026-09-04 23:32:45 | 51.09441 | 17.24161 | 88° | 124km/h | 5312m | 7.0m/s | 0°C | 0% | 0hPa | 0V | 00:00:00 | 00:00:00 | 00:00:00 | |
| POL1PZ | 2026-09-04 23:32:39 | 51.09429 | 17.23823 | 80° | 146km/h | 5278m | 6.1m/s | 0°C | 0% | 0hPa | 0V | 00:00:00 | 00:00:00 | 00:00:00 | |
| SQ6EMJ | 2026-09-04 23:32:34 | 51.09392 | 17.23539 | 83° | 137km/h | 5251m | 6.1m/s | 0°C | 0% | 0hPa | 0V | 00:00:00 | 00:00:00 | 00:00:00 | |
| SQ6EMJ | 2026-09-04 23:32:27 | 51.09378 | 17.23190 | 89° | 122km/h | 5216m | 4.5m/s | 0°C | 0% | 0hPa | 0V | 00:00:00 | 00:00:00 | 00:00:00 | |
| SQ6EMJ | 2026-09-04 23:32:21 | 51.09345 | 17.22866 | 76° | 135km/h | 5185m | 2.1m/s | 0°C | 0% | 0hPa | 0V | 00:00:00 | 00:00:00 | 00:00:00 | |
| POL1PZ | 2026-09-04 23:32:17 | 51.09317 | 17.22667 | 86° | 128km/h | 5168m | 6.3m/s | 0°C | 0% | 0hPa | 0V | 00:00:00 | 00:00:00 | 00:00:00 | |
| SQ6EMJ | 2026-09-04 23:32:15 | 51.09314 | 17.22561 | 89° | 135km/h | 5156m | 5.3m/s | 0°C | 0% | 0hPa | 0V | 00:00:00 | 00:00:00 | 00:00:00 | |
| SQ6EMJ | 2026-09-04 23:32:09 | 51.09302 | 17.22262 | 86° | 113km/h | 5132m | 1.8m/s | 0°C | 0% | 0hPa | 0V | 00:00:00 | 00:00:00 | 00:00:00 | |
| SQ6EMJ | 2026-09-04 23:32:03 | 51.09278 | 17.21952 | 77° | 141km/h | 5102m | 5.7m/s | 0°C | 0% | 0hPa | 0V | 00:00:00 | 00:00:00 | 00:00:00 | |
| SQ6EMJ | 2026-09-04 23:31:58 | 51.09259 | 17.21690 | 92° | 135km/h | 5075m | 5.1m/s | 0°C | 0% | 0hPa | 0V | 00:00:00 | 00:00:00 | 00:00:00 | |
| POL1PZ | 2026-09-04 23:31:56 | 51.09256 | 17.21580 | 84° | 141km/h | 5065m | 4.8m/s | 0°C | 0% | 0hPa | 0V | 00:00:00 | 00:00:00 | 00:00:00 | |
| SQ6EMJ | 2026-09-04 23:31:52 | 51.09225 | 17.21347 | 80° | 148km/h | 5042m | 4.4m/s | 0°C | 0% | 0hPa | 0V | 00:00:00 | 00:00:00 | 00:00:00 | |
| SQ6EMJ | 2026-09-04 23:31:46 | 51.09197 | 17.21057 | 76° | 120km/h | 5002m | 4.4m/s | 0°C | 0% | 0hPa | 0V | 00:00:00 | 00:00:00 | 00:00:00 | |
| SQ6EMJ | 2026-09-04 23:31:40 | 51.09184 | 17.20755 | 90° | 113km/h | 4968m | 4.6m/s | 0°C | 0% | 0hPa | 0V | 00:00:00 | 00:00:00 | 00:00:00 | |
| POL1PZ | 2026-09-04 23:31:36 | 51.09167 | 17.20586 | 78° | 111km/h | 4946m | 4.3m/s | 0°C | 0% | 0hPa | 0V | 00:00:00 | 00:00:00 | 00:00:00 | |
| SQ6EMJ | 2026-09-04 23:31:34 | 51.09156 | 17.20491 | 84° | 128km/h | 4937m | 5.6m/s | 0°C | 0% | 0hPa | 0V | 00:00:00 | 00:00:00 | 00:00:00 | |
| SQ6EMJ | 2026-09-04 23:31:29 | 51.09156 | 17.20247 | 92° | 108km/h | 4908m | 4.6m/s | 0°C | 0% | 0hPa | 0V | 00:00:00 | 00:00:00 | 00:00:00 | |
| SQ6EMJ | 2026-09-04 23:31:23 | 51.09134 | 17.19996 | 78° | 120km/h | 4881m | 3.7m/s | 0°C | 0% | 0hPa | 0V | 00:00:00 | 00:00:00 | 00:00:00 | |
| SQ6EMJ | 2026-09-04 23:31:17 | 51.09109 | 17.19691 | 89° | 111km/h | 4852m | 4.6m/s | 0°C | 0% | 0hPa | 0V | 00:00:00 | 00:00:00 | 00:00:00 | |
| POL1PZ | 2026-09-04 23:31:16 | 51.09108 | 17.19647 | 91° | 106km/h | 4846m | 7.5m/s | 0°C | 0% | 0hPa | 0V | 00:00:00 | 00:00:00 | 00:00:00 | |
| SQ6EMJ | 2026-09-04 23:31:11 | 51.09109 | 17.19413 | 87° | 130km/h | 4818m | 4.7m/s | 0°C | 0% | 0hPa | 0V | 00:00:00 | 00:00:00 | 00:00:00 | |
| SQ6EMJ | 2026-09-04 23:31:06 | 51.09080 | 17.19164 | 83° | 119km/h | 4793m | 5.8m/s | 0°C | 0% | 0hPa | 0V | 00:00:00 | 00:00:00 | 00:00:00 | |
| SQ6EMJ | 2026-09-04 23:31:00 | 51.09069 | 17.18902 | 80° | 108km/h | 4766m | 4.0m/s | 0°C | 0% | 0hPa | 0V | 00:00:00 | 00:00:00 | 00:00:00 | |
| POL1PZ | 2026-09-04 23:30:55 | 51.09036 | 17.18696 | 80° | 104km/h | 4741m | 3.5m/s | 0°C | 0% | 0hPa | 0V | 00:00:00 | 00:00:00 | 00:00:00 | |
| SQ6EMJ | 2026-09-04 23:30:48 | 51.09029 | 17.18392 | 90° | 113km/h | 4713m | 4.5m/s | 0°C | 0% | 0hPa | 0V | 00:00:00 | 00:00:00 | 00:00:00 | |
| SQ6EMJ | 2026-09-04 23:30:42 | 51.09012 | 17.18147 | 84° | 102km/h | 4688m | 3.4m/s | 0°C | 0% | 0hPa | 0V | 00:00:00 | 00:00:00 | 00:00:00 | |
| SQ6EMJ | 2026-09-04 23:30:36 | 51.08983 | 17.17860 | 77° | 113km/h | 4658m | 3.4m/s | 0°C | 0% | 0hPa | 0V | 00:00:00 | 00:00:00 | 00:00:00 | |
| POL1PZ | 2026-09-04 23:30:35 | 51.08977 | 17.17818 | 79° | 106km/h | 4654m | 4.4m/s | 0°C | 0% | 0hPa | 0V | 00:00:00 | 00:00:00 | 00:00:00 | |
| SQ6EMJ | 2026-09-04 23:30:30 | 51.08967 | 17.17601 | 85° | 126km/h | 4628m | 4.8m/s | 0°C | 0% | 0hPa | 0V | 00:00:00 | 00:00:00 | 00:00:00 | |
| SQ6EMJ | 2026-09-04 23:30:24 | 51.08936 | 17.17298 | 85° | 115km/h | 4599m | 4.4m/s | 0°C | 0% | 0hPa | 0V | 00:00:00 | 00:00:00 | 00:00:00 | |
| SQ6EMJ | 2026-09-04 23:30:19 | 51.08916 | 17.17094 | 81° | 115km/h | 4573m | 4.3m/s | 0°C | 0% | 0hPa | 0V | 00:00:00 | 00:00:00 | 00:00:00 | |
| POL1PZ | 2026-09-04 23:30:15 | 51.08904 | 17.16849 | 88° | 126km/h | 4546m | 4.3m/s | 0°C | 0% | 0hPa | 0V | 00:00:00 | 00:00:00 | 00:00:00 | |
| SQ6EMJ | 2026-09-04 23:30:13 | 51.08901 | 17.16799 | 86° | 126km/h | 4542m | 4.1m/s | 0°C | 0% | 0hPa | 0V | 00:00:00 | 00:00:00 | 00:00:00 | |
| SQ6EMJ | 2026-09-04 23:30:07 | 51.08870 | 17.16536 | 86° | 102km/h | 4510m | 4.9m/s | 0°C | 0% | 0hPa | 0V | 00:00:00 | 00:00:00 | 00:00:00 | |
| SQ6EMJ | 2026-09-04 23:30:01 | 51.08867 | 17.16262 | 83° | 124km/h | 4481m | 3.6m/s | 0°C | 0% | 0hPa | 0V | 00:00:00 | 00:00:00 | 00:00:00 | |
| SQ6EMJ | 2026-09-04 23:29:55 | 51.08833 | 17.16015 | 88° | 97km/h | 4450m | 3.9m/s | 0°C | 0% | 0hPa | 0V | 00:00:00 | 00:00:00 | 00:00:00 | |
| POL1PZ | 2026-09-04 23:29:54 | 51.08833 | 17.15974 | 92° | 104km/h | 4446m | 4.0m/s | 0°C | 0% | 0hPa | 0V | 00:00:00 | 00:00:00 | 00:00:00 | |
| SQ6EMJ | 2026-09-04 23:29:50 | 51.08826 | 17.15785 | 81° | 124km/h | 4429m | 3.4m/s | 0°C | 0% | 0hPa | 0V | 00:00:00 | 00:00:00 | 00:00:00 | |
| SQ6EMJ | 2026-09-04 23:29:44 | 51.08805 | 17.15529 | 93° | 106km/h | 4399m | 5.8m/s | 0°C | 0% | 0hPa | 0V | 00:00:00 | 00:00:00 | 00:00:00 | |
| SQ6EMJ | 2026-09-04 23:29:38 | 51.08787 | 17.15246 | 78° | 113km/h | 4365m | 4.2m/s | 0°C | 0% | 0hPa | 0V | 00:00:00 | 00:00:00 | 00:00:00 | |
| POL1PZ | 2026-09-04 23:29:33 | 51.08762 | 17.15056 | 80° | 86km/h | 4344m | 3.5m/s | 0°C | 0% | 0hPa | 0V | 00:00:00 | 00:00:00 | 00:00:00 | |
| SQ6EMJ | 2026-09-04 23:29:26 | 51.08721 | 17.14753 | 87° | 119km/h | 4313m | 3.6m/s | 0°C | 0% | 0hPa | 0V | 00:00:00 | 00:00:00 | 00:00:00 | |
| SQ6EMJ | 2026-09-04 23:29:19 | 51.08706 | 17.14474 | 77° | 102km/h | 4284m | 5.3m/s | 0°C | 0% | 0hPa | 0V | 00:00:00 | 00:00:00 | 00:00:00 | |
| POL1PZ | 2026-09-04 23:29:12 | 51.08651 | 17.14182 | 74° | 100km/h | 4255m | 3.5m/s | 0°C | 0% | 0hPa | 0V | 00:00:00 | 00:00:00 | 00:00:00 | |
| SQ6EMJ | 2026-09-04 23:29:09 | 51.08636 | 17.14063 | 86° | 100km/h | 4242m | 4.1m/s | 0°C | 0% | 0hPa | 0V | 00:00:00 | 00:00:00 | 00:00:00 | |
| SQ6EMJ | 2026-09-04 23:29:02 | 51.08611 | 17.13793 | 85° | 99km/h | 4208m | 3.7m/s | 0°C | 0% | 0hPa | 0V | 00:00:00 | 00:00:00 | 00:00:00 | |
| POL1PZ | 2026-09-04 23:28:51 | 51.08582 | 17.13313 | 73° | 117km/h | 4153m | 6.7m/s | 0°C | 0% | 0hPa | 0V | 00:00:00 | 00:00:00 | 00:00:00 | |
| SQ6EMJ | 2026-09-04 23:28:45 | 51.08542 | 17.13067 | 88° | 106km/h | 4125m | 5.4m/s | 0°C | 0% | 0hPa | 0V | 00:00:00 | 00:00:00 | 00:00:00 | |
| SQ6EMJ | 2026-09-04 23:28:40 | 51.08521 | 17.12835 | 76° | 113km/h | 4098m | 3.2m/s | 0°C | 0% | 0hPa | 0V | 00:00:00 | 00:00:00 | 00:00:00 | |
| POL1PZ | 2026-09-04 23:28:30 | 51.08488 | 17.12369 | 81° | 102km/h | 4054m | 5.9m/s | 0°C | 0% | 0hPa | 0V | 00:00:00 | 00:00:00 | 00:00:00 | |
| POL1PZ | 2026-09-04 23:28:07 | 51.08349 | 17.11372 | 78° | 99km/h | 3927m | 5.0m/s | 0°C | 0% | 0hPa | 0V | 00:00:00 | 00:00:00 | 00:00:00 | |
| POL1PZ | 2026-09-04 23:27:46 | 51.08209 | 17.10501 | 75° | 95km/h | 3828m | 5.1m/s | 0°C | 0% | 0hPa | 0V | 00:00:00 | 00:00:00 | 00:00:00 | |
| SQ6EMJ | 2026-09-04 23:27:40 | 51.08169 | 17.10241 | 67° | 117km/h | 3797m | 5.5m/s | 0°C | 0% | 0hPa | 0V | 00:00:00 | 00:00:00 | 00:00:00 | |
| SQ6EMJ | 2026-09-04 23:27:35 | 51.08122 | 17.10039 | 78° | 115km/h | 3769m | 6.1m/s | 0°C | 0% | 0hPa | 0V | 00:00:00 | 00:00:00 | 00:00:00 | |
| SQ6EMJ | 2026-09-04 23:27:30 | 51.08072 | 17.09823 | 67° | 102km/h | 3740m | 4.8m/s | 0°C | 0% | 0hPa | 0V | 00:00:00 | 00:00:00 | 00:00:00 | |
| POL1PZ | 2026-09-04 23:27:26 | 51.08041 | 17.09657 | 79° | 120km/h | 3719m | 6.4m/s | 0°C | 0% | 0hPa | 0V | 00:00:00 | 00:00:00 | 00:00:00 | |
| SQ6EMJ | 2026-09-04 23:27:24 | 51.08026 | 17.09563 | 74° | 117km/h | 3707m | 5.4m/s | 0°C | 0% | 0hPa | 0V | 00:00:00 | 00:00:00 | 00:00:00 | |
| SQ6EMJ | 2026-09-04 23:27:17 | 51.07964 | 17.09254 | 85° | 119km/h | 3662m | 5.9m/s | 0°C | 0% | 0hPa | 0V | 00:00:00 | 00:00:00 | 00:00:00 | |
| SQ6EMJ | 2026-09-04 23:27:11 | 51.07925 | 17.09018 | 62° | 97km/h | 3625m | 6.3m/s | 0°C | 0% | 0hPa | 0V | 00:00:00 | 00:00:00 | 00:00:00 | |
| POL1PZ | 2026-09-04 23:27:04 | 51.07869 | 17.08721 | 79° | 104km/h | 3584m | 6.4m/s | 0°C | 0% | 0hPa | 0V | 00:00:00 | 00:00:00 | 00:00:00 | |
| POL1PZ | 2026-09-04 23:26:43 | 51.07715 | 17.07908 | 70° | 104km/h | 3471m | 6.2m/s | 0°C | 0% | 0hPa | 0V | 00:00:00 | 00:00:00 | 00:00:00 | |
| POL1PZ | 2026-09-04 23:26:16 | 51.07532 | 17.06872 | 73° | 99km/h | 3317m | 5.6m/s | 0°C | 0% | 0hPa | 0V | 00:00:00 | 00:00:00 | 00:00:00 | |
| POL1PZ | 2026-09-04 23:25:39 | 51.07399 | 17.05434 | 87° | 91km/h | 3145m | 3.0m/s | 0°C | 0% | 0hPa | 0V | 00:00:00 | 00:00:00 | 00:00:00 | |
| POL1PZ | 2026-09-04 23:25:07 | 51.07327 | 17.04400 | 93° | 73km/h | 2975m | 5.4m/s | 0°C | 0% | 0hPa | 0V | 00:00:00 | 00:00:00 | 00:00:00 | |
| POL1PZ | 2026-09-04 23:24:40 | 51.07389 | 17.03492 | 110° | 95km/h | 2799m | 5.6m/s | 0°C | 0% | 0hPa | 0V | 00:00:00 | 00:00:00 | 00:00:00 |